<?xml version="1.0" encoding="UTF-8" standalone="no" ?><gpx xmlns="http://www.topografix.com/GPX/1/1" xmlns:gpxx="http://www.garmin.com/xmlschemas/GpxExtensions/v3" xmlns:wptx1="http://www.garmin.com/xmlschemas/WaypointExtension/v1" xmlns:gpxtpx="http://www.garmin.com/xmlschemas/TrackPointExtension/v1" creator="GuideVTT.com" version="1.1" xmlns:xsi="http://www.w3.org/2001/XMLSchema-instance" xsi:schemaLocation="http://www.topografix.com/GPX/1/1 http://www.topografix.com/GPX/1/1/gpx.xsd http://www.garmin.com/xmlschemas/GpxExtensions/v3 http://www8.garmin.com/xmlschemas/GpxExtensionsv3.xsd http://www.garmin.com/xmlschemas/WaypointExtension/v1 http://www8.garmin.com/xmlschemas/WaypointExtensionv1.xsd http://www.garmin.com/xmlschemas/TrackPointExtension/v1 http://www.garmin.com/xmlschemas/TrackPointExtensionv1.xsd">
<metadata><link href="http://www.garmin.com"><text>Garmin International</text></link><time>2013-06-22T15:13:50Z</time></metadata>
<trk><name>marly.gpx</name><extensions><gpxx:TrackExtension><gpxx:DisplayColor>Cyan</gpxx:DisplayColor></gpxx:TrackExtension></extensions><trkseg>
<trkpt lat="46.790369" lon="7.118706"><ele></ele><time>2013-7-31T8:52:51Z</time></trkpt>
<trkpt lat="46.790369" lon="7.118706"><ele></ele><time>2013-7-31T8:52:54Z</time></trkpt>
<trkpt lat="46.790447" lon="7.118952"><ele></ele><time>2013-7-31T8:52:57Z</time></trkpt>
<trkpt lat="46.790482" lon="7.119178"><ele></ele><time>2013-7-31T8:53:0Z</time></trkpt>
<trkpt lat="46.790516" lon="7.119441"><ele></ele><time>2013-7-31T8:53:3Z</time></trkpt>
<trkpt lat="46.790544" lon="7.119686"><ele></ele><time>2013-7-31T8:53:6Z</time></trkpt>
<trkpt lat="46.790542" lon="7.11985"><ele></ele><time>2013-7-31T8:53:9Z</time></trkpt>
<trkpt lat="46.79059" lon="7.120048"><ele></ele><time>2013-7-31T8:53:12Z</time></trkpt>
<trkpt lat="46.790654" lon="7.120147"><ele></ele><time>2013-7-31T8:53:15Z</time></trkpt>
<trkpt lat="46.790787" lon="7.120045"><ele></ele><time>2013-7-31T8:53:18Z</time></trkpt>
<trkpt lat="46.790933" lon="7.119979"><ele></ele><time>2013-7-31T8:53:21Z</time></trkpt>
<trkpt lat="46.791028" lon="7.120128"><ele></ele><time>2013-7-31T8:53:24Z</time></trkpt>
<trkpt lat="46.791104" lon="7.120289"><ele></ele><time>2013-7-31T8:53:27Z</time></trkpt>
<trkpt lat="46.791279" lon="7.120418"><ele></ele><time>2013-7-31T8:53:30Z</time></trkpt>
<trkpt lat="46.791386" lon="7.120353"><ele></ele><time>2013-7-31T8:53:33Z</time></trkpt>
<trkpt lat="46.791484" lon="7.120305"><ele></ele><time>2013-7-31T8:53:36Z</time></trkpt>
<trkpt lat="46.791624" lon="7.120298"><ele></ele><time>2013-7-31T8:53:39Z</time></trkpt>
<trkpt lat="46.791716" lon="7.120367"><ele></ele><time>2013-7-31T8:53:42Z</time></trkpt>
<trkpt lat="46.79182" lon="7.120315"><ele></ele><time>2013-7-31T8:53:45Z</time></trkpt>
<trkpt lat="46.791911" lon="7.120249"><ele></ele><time>2013-7-31T8:53:48Z</time></trkpt>
<trkpt lat="46.792011" lon="7.120246"><ele></ele><time>2013-7-31T8:53:51Z</time></trkpt>
<trkpt lat="46.79213" lon="7.120241"><ele></ele><time>2013-7-31T8:53:54Z</time></trkpt>
<trkpt lat="46.792226" lon="7.1203"><ele></ele><time>2013-7-31T8:53:57Z</time></trkpt>
<trkpt lat="46.792216" lon="7.120445"><ele></ele><time>2013-7-31T8:54:0Z</time></trkpt>
<trkpt lat="46.79222" lon="7.120586"><ele></ele><time>2013-7-31T8:54:3Z</time></trkpt>
<trkpt lat="46.792225" lon="7.120744"><ele></ele><time>2013-7-31T8:54:6Z</time></trkpt>
<trkpt lat="46.792299" lon="7.120862"><ele></ele><time>2013-7-31T8:54:9Z</time></trkpt>
<trkpt lat="46.792399" lon="7.1207"><ele></ele><time>2013-7-31T8:54:12Z</time></trkpt>
<trkpt lat="46.792447" lon="7.120542"><ele></ele><time>2013-7-31T8:54:15Z</time></trkpt>
<trkpt lat="46.792506" lon="7.120395"><ele></ele><time>2013-7-31T8:54:18Z</time></trkpt>
<trkpt lat="46.792576" lon="7.120245"><ele></ele><time>2013-7-31T8:54:21Z</time></trkpt>
<trkpt lat="46.792694" lon="7.120055"><ele></ele><time>2013-7-31T8:54:24Z</time></trkpt>
<trkpt lat="46.792755" lon="7.119951"><ele></ele><time>2013-7-31T8:54:27Z</time></trkpt>
<trkpt lat="46.792874" lon="7.119768"><ele></ele><time>2013-7-31T8:54:30Z</time></trkpt>
<trkpt lat="46.792984" lon="7.11973"><ele></ele><time>2013-7-31T8:54:33Z</time></trkpt>
<trkpt lat="46.793111" lon="7.119683"><ele></ele><time>2013-7-31T8:54:36Z</time></trkpt>
<trkpt lat="46.793218" lon="7.119709"><ele></ele><time>2013-7-31T8:54:39Z</time></trkpt>
<trkpt lat="46.793242" lon="7.119573"><ele></ele><time>2013-7-31T8:54:42Z</time></trkpt>
<trkpt lat="46.793237" lon="7.119398"><ele></ele><time>2013-7-31T8:54:45Z</time></trkpt>
<trkpt lat="46.793226" lon="7.119246"><ele></ele><time>2013-7-31T8:54:48Z</time></trkpt>
<trkpt lat="46.793282" lon="7.119133"><ele></ele><time>2013-7-31T8:54:51Z</time></trkpt>
<trkpt lat="46.793422" lon="7.119173"><ele></ele><time>2013-7-31T8:54:54Z</time></trkpt>
<trkpt lat="46.793445" lon="7.119316"><ele></ele><time>2013-7-31T8:54:57Z</time></trkpt>
<trkpt lat="46.793584" lon="7.119425"><ele></ele><time>2013-7-31T8:55:0Z</time></trkpt>
<trkpt lat="46.793694" lon="7.119574"><ele></ele><time>2013-7-31T8:55:3Z</time></trkpt>
<trkpt lat="46.793754" lon="7.119757"><ele></ele><time>2013-7-31T8:55:6Z</time></trkpt>
<trkpt lat="46.793807" lon="7.119899"><ele></ele><time>2013-7-31T8:55:9Z</time></trkpt>
<trkpt lat="46.793898" lon="7.120086"><ele></ele><time>2013-7-31T8:55:12Z</time></trkpt>
<trkpt lat="46.793986" lon="7.120242"><ele></ele><time>2013-7-31T8:55:15Z</time></trkpt>
<trkpt lat="46.794063" lon="7.120326"><ele></ele><time>2013-7-31T8:55:18Z</time></trkpt>
<trkpt lat="46.794147" lon="7.120382"><ele></ele><time>2013-7-31T8:55:21Z</time></trkpt>
<trkpt lat="46.79426" lon="7.120512"><ele></ele><time>2013-7-31T8:55:24Z</time></trkpt>
<trkpt lat="46.794404" lon="7.120565"><ele></ele><time>2013-7-31T8:55:27Z</time></trkpt>
<trkpt lat="46.794512" lon="7.120581"><ele></ele><time>2013-7-31T8:55:30Z</time></trkpt>
<trkpt lat="46.794664" lon="7.12063"><ele></ele><time>2013-7-31T8:55:33Z</time></trkpt>
<trkpt lat="46.794778" lon="7.120634"><ele></ele><time>2013-7-31T8:55:36Z</time></trkpt>
<trkpt lat="46.794985" lon="7.120614"><ele></ele><time>2013-7-31T8:55:39Z</time></trkpt>
<trkpt lat="46.795117" lon="7.120579"><ele></ele><time>2013-7-31T8:55:42Z</time></trkpt>
<trkpt lat="46.795272" lon="7.12061"><ele></ele><time>2013-7-31T8:55:45Z</time></trkpt>
<trkpt lat="46.795421" lon="7.120678"><ele></ele><time>2013-7-31T8:55:48Z</time></trkpt>
<trkpt lat="46.795574" lon="7.120782"><ele></ele><time>2013-7-31T8:55:51Z</time></trkpt>
<trkpt lat="46.795687" lon="7.120874"><ele></ele><time>2013-7-31T8:55:54Z</time></trkpt>
<trkpt lat="46.795854" lon="7.120856"><ele></ele><time>2013-7-31T8:55:57Z</time></trkpt>
<trkpt lat="46.796038" lon="7.120769"><ele></ele><time>2013-7-31T8:56:0Z</time></trkpt>
<trkpt lat="46.79616" lon="7.120717"><ele></ele><time>2013-7-31T8:56:3Z</time></trkpt>
<trkpt lat="46.796323" lon="7.120677"><ele></ele><time>2013-7-31T8:56:6Z</time></trkpt>
<trkpt lat="46.796506" lon="7.120594"><ele></ele><time>2013-7-31T8:56:9Z</time></trkpt>
<trkpt lat="46.796701" lon="7.120519"><ele></ele><time>2013-7-31T8:56:12Z</time></trkpt>
<trkpt lat="46.796879" lon="7.120456"><ele></ele><time>2013-7-31T8:56:15Z</time></trkpt>
<trkpt lat="46.796967" lon="7.12028"><ele></ele><time>2013-7-31T8:56:18Z</time></trkpt>
<trkpt lat="46.797047" lon="7.120058"><ele></ele><time>2013-7-31T8:56:21Z</time></trkpt>
<trkpt lat="46.797055" lon="7.119829"><ele></ele><time>2013-7-31T8:56:24Z</time></trkpt>
<trkpt lat="46.797049" lon="7.119601"><ele></ele><time>2013-7-31T8:56:27Z</time></trkpt>
<trkpt lat="46.797178" lon="7.119452"><ele></ele><time>2013-7-31T8:56:30Z</time></trkpt>
<trkpt lat="46.79736" lon="7.119437"><ele></ele><time>2013-7-31T8:56:33Z</time></trkpt>
<trkpt lat="46.797476" lon="7.119531"><ele></ele><time>2013-7-31T8:56:36Z</time></trkpt>
<trkpt lat="46.797593" lon="7.119723"><ele></ele><time>2013-7-31T8:56:39Z</time></trkpt>
<trkpt lat="46.79779" lon="7.119814"><ele></ele><time>2013-7-31T8:56:42Z</time></trkpt>
<trkpt lat="46.797933" lon="7.119859"><ele></ele><time>2013-7-31T8:56:45Z</time></trkpt>
<trkpt lat="46.797837" lon="7.119923"><ele></ele><time>2013-7-31T8:56:48Z</time></trkpt>
<trkpt lat="46.797936" lon="7.119879"><ele></ele><time>2013-7-31T8:56:51Z</time></trkpt>
<trkpt lat="46.798003" lon="7.119741"><ele></ele><time>2013-7-31T8:56:54Z</time></trkpt>
<trkpt lat="46.797977" lon="7.119484"><ele></ele><time>2013-7-31T8:56:57Z</time></trkpt>
<trkpt lat="46.797948" lon="7.119106"><ele></ele><time>2013-7-31T8:57:0Z</time></trkpt>
<trkpt lat="46.797932" lon="7.118785"><ele></ele><time>2013-7-31T8:57:3Z</time></trkpt>
<trkpt lat="46.798063" lon="7.118551"><ele></ele><time>2013-7-31T8:57:6Z</time></trkpt>
<trkpt lat="46.798153" lon="7.118347"><ele></ele><time>2013-7-31T8:57:9Z</time></trkpt>
<trkpt lat="46.798243" lon="7.118075"><ele></ele><time>2013-7-31T8:57:12Z</time></trkpt>
<trkpt lat="46.79828" lon="7.1177"><ele></ele><time>2013-7-31T8:57:15Z</time></trkpt>
<trkpt lat="46.798325" lon="7.117397"><ele></ele><time>2013-7-31T8:57:18Z</time></trkpt>
<trkpt lat="46.798283" lon="7.117075"><ele></ele><time>2013-7-31T8:57:21Z</time></trkpt>
<trkpt lat="46.798225" lon="7.116401"><ele></ele><time>2013-7-31T8:57:24Z</time></trkpt>
<trkpt lat="46.79831" lon="7.116002"><ele></ele><time>2013-7-31T8:57:27Z</time></trkpt>
<trkpt lat="46.798438" lon="7.115591"><ele></ele><time>2013-7-31T8:57:30Z</time></trkpt>
<trkpt lat="46.798764" lon="7.115407"><ele></ele><time>2013-7-31T8:57:33Z</time></trkpt>
<trkpt lat="46.79885" lon="7.114865"><ele></ele><time>2013-7-31T8:57:36Z</time></trkpt>
<trkpt lat="46.798999" lon="7.114439"><ele></ele><time>2013-7-31T8:57:39Z</time></trkpt>
<trkpt lat="46.799129" lon="7.114168"><ele></ele><time>2013-7-31T8:57:42Z</time></trkpt>
<trkpt lat="46.799192" lon="7.114028"><ele></ele><time>2013-7-31T8:57:45Z</time></trkpt>
<trkpt lat="46.799269" lon="7.113857"><ele></ele><time>2013-7-31T8:57:48Z</time></trkpt>
<trkpt lat="46.799348" lon="7.113669"><ele></ele><time>2013-7-31T8:57:51Z</time></trkpt>
<trkpt lat="46.799477" lon="7.113378"><ele></ele><time>2013-7-31T8:57:54Z</time></trkpt>
<trkpt lat="46.799579" lon="7.112928"><ele></ele><time>2013-7-31T8:57:57Z</time></trkpt>
<trkpt lat="46.799706" lon="7.112363"><ele></ele><time>2013-7-31T8:58:0Z</time></trkpt>
<trkpt lat="46.799848" lon="7.111909"><ele></ele><time>2013-7-31T8:58:3Z</time></trkpt>
<trkpt lat="46.800023" lon="7.1114"><ele></ele><time>2013-7-31T8:58:6Z</time></trkpt>
<trkpt lat="46.800218" lon="7.110971"><ele></ele><time>2013-7-31T8:58:9Z</time></trkpt>
<trkpt lat="46.800283" lon="7.110772"><ele></ele><time>2013-7-31T8:58:12Z</time></trkpt>
<trkpt lat="46.800215" lon="7.110625"><ele></ele><time>2013-7-31T8:58:15Z</time></trkpt>
<trkpt lat="46.800132" lon="7.110531"><ele></ele><time>2013-7-31T8:58:18Z</time></trkpt>
<trkpt lat="46.800022" lon="7.110346"><ele></ele><time>2013-7-31T8:58:21Z</time></trkpt>
<trkpt lat="46.799938" lon="7.110265"><ele></ele><time>2013-7-31T8:58:24Z</time></trkpt>
<trkpt lat="46.799853" lon="7.110144"><ele></ele><time>2013-7-31T8:58:27Z</time></trkpt>
<trkpt lat="46.799704" lon="7.109893"><ele></ele><time>2013-7-31T8:58:30Z</time></trkpt>
<trkpt lat="46.799602" lon="7.109675"><ele></ele><time>2013-7-31T8:58:33Z</time></trkpt>
<trkpt lat="46.799489" lon="7.109483"><ele></ele><time>2013-7-31T8:58:36Z</time></trkpt>
<trkpt lat="46.799403" lon="7.109423"><ele></ele><time>2013-7-31T8:58:39Z</time></trkpt>
<trkpt lat="46.799296" lon="7.109286"><ele></ele><time>2013-7-31T8:58:42Z</time></trkpt>
<trkpt lat="46.799291" lon="7.108986"><ele></ele><time>2013-7-31T8:58:45Z</time></trkpt>
<trkpt lat="46.79934" lon="7.108761"><ele></ele><time>2013-7-31T8:58:48Z</time></trkpt>
<trkpt lat="46.799397" lon="7.108557"><ele></ele><time>2013-7-31T8:58:51Z</time></trkpt>
<trkpt lat="46.799441" lon="7.108431"><ele></ele><time>2013-7-31T8:58:54Z</time></trkpt>
<trkpt lat="46.799634" lon="7.108266"><ele></ele><time>2013-7-31T8:58:57Z</time></trkpt>
<trkpt lat="46.799886" lon="7.108251"><ele></ele><time>2013-7-31T8:59:0Z</time></trkpt>
<trkpt lat="46.800083" lon="7.108212"><ele></ele><time>2013-7-31T8:59:3Z</time></trkpt>
<trkpt lat="46.800268" lon="7.108276"><ele></ele><time>2013-7-31T8:59:6Z</time></trkpt>
<trkpt lat="46.800361" lon="7.108318"><ele></ele><time>2013-7-31T8:59:9Z</time></trkpt>
<trkpt lat="46.800523" lon="7.108478"><ele></ele><time>2013-7-31T8:59:12Z</time></trkpt>
<trkpt lat="46.800698" lon="7.10869"><ele></ele><time>2013-7-31T8:59:15Z</time></trkpt>
<trkpt lat="46.800805" lon="7.108868"><ele></ele><time>2013-7-31T8:59:18Z</time></trkpt>
<trkpt lat="46.800839" lon="7.109071"><ele></ele><time>2013-7-31T8:59:21Z</time></trkpt>
<trkpt lat="46.801283" lon="7.108805"><ele></ele><time>2013-7-31T8:59:24Z</time></trkpt>
<trkpt lat="46.801514" lon="7.108458"><ele></ele><time>2013-7-31T8:59:27Z</time></trkpt>
<trkpt lat="46.801738" lon="7.10785"><ele></ele><time>2013-7-31T8:59:30Z</time></trkpt>
<trkpt lat="46.801668" lon="7.107423"><ele></ele><time>2013-7-31T8:59:33Z</time></trkpt>
<trkpt lat="46.801589" lon="7.107109"><ele></ele><time>2013-7-31T8:59:36Z</time></trkpt>
<trkpt lat="46.801551" lon="7.10679"><ele></ele><time>2013-7-31T8:59:39Z</time></trkpt>
<trkpt lat="46.801553" lon="7.106545"><ele></ele><time>2013-7-31T8:59:42Z</time></trkpt>
<trkpt lat="46.80156" lon="7.106313"><ele></ele><time>2013-7-31T8:59:45Z</time></trkpt>
<trkpt lat="46.8015" lon="7.10611"><ele></ele><time>2013-7-31T8:59:48Z</time></trkpt>
<trkpt lat="46.801433" lon="7.105922"><ele></ele><time>2013-7-31T8:59:51Z</time></trkpt>
<trkpt lat="46.801392" lon="7.105641"><ele></ele><time>2013-7-31T8:59:54Z</time></trkpt>
<trkpt lat="46.80131" lon="7.105264"><ele></ele><time>2013-7-31T8:59:57Z</time></trkpt>
<trkpt lat="46.801301" lon="7.105039"><ele></ele><time>2013-7-31T9:0:0Z</time></trkpt>
<trkpt lat="46.801334" lon="7.104837"><ele></ele><time>2013-7-31T9:0:3Z</time></trkpt>
<trkpt lat="46.801354" lon="7.104673"><ele></ele><time>2013-7-31T9:0:6Z</time></trkpt>
<trkpt lat="46.801378" lon="7.10449"><ele></ele><time>2013-7-31T9:0:9Z</time></trkpt>
<trkpt lat="46.801337" lon="7.10427"><ele></ele><time>2013-7-31T9:0:12Z</time></trkpt>
<trkpt lat="46.801291" lon="7.103981"><ele></ele><time>2013-7-31T9:0:15Z</time></trkpt>
<trkpt lat="46.801237" lon="7.103656"><ele></ele><time>2013-7-31T9:0:18Z</time></trkpt>
<trkpt lat="46.801179" lon="7.103452"><ele></ele><time>2013-7-31T9:0:21Z</time></trkpt>
<trkpt lat="46.801088" lon="7.103156"><ele></ele><time>2013-7-31T9:0:24Z</time></trkpt>
<trkpt lat="46.801023" lon="7.102935"><ele></ele><time>2013-7-31T9:0:27Z</time></trkpt>
<trkpt lat="46.800946" lon="7.102679"><ele></ele><time>2013-7-31T9:0:30Z</time></trkpt>
<trkpt lat="46.800852" lon="7.10237"><ele></ele><time>2013-7-31T9:0:33Z</time></trkpt>
<trkpt lat="46.800755" lon="7.102035"><ele></ele><time>2013-7-31T9:0:36Z</time></trkpt>
<trkpt lat="46.800686" lon="7.101712"><ele></ele><time>2013-7-31T9:0:39Z</time></trkpt>
<trkpt lat="46.800835" lon="7.101519"><ele></ele><time>2013-7-31T9:0:42Z</time></trkpt>
<trkpt lat="46.801098" lon="7.10139"><ele></ele><time>2013-7-31T9:0:45Z</time></trkpt>
<trkpt lat="46.801358" lon="7.101146"><ele></ele><time>2013-7-31T9:0:48Z</time></trkpt>
<trkpt lat="46.801389" lon="7.100686"><ele></ele><time>2013-7-31T9:0:51Z</time></trkpt>
<trkpt lat="46.801339" lon="7.100214"><ele></ele><time>2013-7-31T9:0:54Z</time></trkpt>
<trkpt lat="46.801307" lon="7.09985"><ele></ele><time>2013-7-31T9:0:57Z</time></trkpt>
<trkpt lat="46.801237" lon="7.099496"><ele></ele><time>2013-7-31T9:1:0Z</time></trkpt>
<trkpt lat="46.801082" lon="7.098809"><ele></ele><time>2013-7-31T9:1:3Z</time></trkpt>
<trkpt lat="46.800981" lon="7.098337"><ele></ele><time>2013-7-31T9:1:6Z</time></trkpt>
<trkpt lat="46.800883" lon="7.097854"><ele></ele><time>2013-7-31T9:1:9Z</time></trkpt>
<trkpt lat="46.800777" lon="7.097368"><ele></ele><time>2013-7-31T9:1:12Z</time></trkpt>
<trkpt lat="46.800674" lon="7.096884"><ele></ele><time>2013-7-31T9:1:15Z</time></trkpt>
<trkpt lat="46.80058" lon="7.096442"><ele></ele><time>2013-7-31T9:1:18Z</time></trkpt>
<trkpt lat="46.800637" lon="7.096227"><ele></ele><time>2013-7-31T9:1:21Z</time></trkpt>
<trkpt lat="46.800873" lon="7.096165"><ele></ele><time>2013-7-31T9:1:24Z</time></trkpt>
<trkpt lat="46.801125" lon="7.096118"><ele></ele><time>2013-7-31T9:1:27Z</time></trkpt>
<trkpt lat="46.801254" lon="7.095902"><ele></ele><time>2013-7-31T9:1:30Z</time></trkpt>
<trkpt lat="46.801211" lon="7.095539"><ele></ele><time>2013-7-31T9:1:33Z</time></trkpt>
<trkpt lat="46.80119" lon="7.095154"><ele></ele><time>2013-7-31T9:1:36Z</time></trkpt>
<trkpt lat="46.801168" lon="7.094829"><ele></ele><time>2013-7-31T9:1:39Z</time></trkpt>
<trkpt lat="46.801157" lon="7.094523"><ele></ele><time>2013-7-31T9:1:42Z</time></trkpt>
<trkpt lat="46.801168" lon="7.09426"><ele></ele><time>2013-7-31T9:1:45Z</time></trkpt>
<trkpt lat="46.801179" lon="7.094057"><ele></ele><time>2013-7-31T9:1:48Z</time></trkpt>
<trkpt lat="46.801138" lon="7.093887"><ele></ele><time>2013-7-31T9:1:51Z</time></trkpt>
<trkpt lat="46.801119" lon="7.093681"><ele></ele><time>2013-7-31T9:1:54Z</time></trkpt>
<trkpt lat="46.801109" lon="7.093386"><ele></ele><time>2013-7-31T9:1:57Z</time></trkpt>
<trkpt lat="46.800992" lon="7.093097"><ele></ele><time>2013-7-31T9:2:0Z</time></trkpt>
<trkpt lat="46.800838" lon="7.092801"><ele></ele><time>2013-7-31T9:2:3Z</time></trkpt>
<trkpt lat="46.800692" lon="7.092514"><ele></ele><time>2013-7-31T9:2:6Z</time></trkpt>
<trkpt lat="46.800556" lon="7.092184"><ele></ele><time>2013-7-31T9:2:9Z</time></trkpt>
<trkpt lat="46.800435" lon="7.091849"><ele></ele><time>2013-7-31T9:2:12Z</time></trkpt>
<trkpt lat="46.800299" lon="7.091535"><ele></ele><time>2013-7-31T9:2:15Z</time></trkpt>
<trkpt lat="46.800197" lon="7.091237"><ele></ele><time>2013-7-31T9:2:18Z</time></trkpt>
<trkpt lat="46.800108" lon="7.090977"><ele></ele><time>2013-7-31T9:2:21Z</time></trkpt>
<trkpt lat="46.800025" lon="7.090757"><ele></ele><time>2013-7-31T9:2:24Z</time></trkpt>
<trkpt lat="46.799917" lon="7.09054"><ele></ele><time>2013-7-31T9:2:27Z</time></trkpt>
<trkpt lat="46.79982" lon="7.090269"><ele></ele><time>2013-7-31T9:2:30Z</time></trkpt>
<trkpt lat="46.799747" lon="7.090033"><ele></ele><time>2013-7-31T9:2:33Z</time></trkpt>
<trkpt lat="46.799688" lon="7.089824"><ele></ele><time>2013-7-31T9:2:36Z</time></trkpt>
<trkpt lat="46.799663" lon="7.089629"><ele></ele><time>2013-7-31T9:2:39Z</time></trkpt>
<trkpt lat="46.799617" lon="7.089422"><ele></ele><time>2013-7-31T9:2:42Z</time></trkpt>
<trkpt lat="46.799607" lon="7.089196"><ele></ele><time>2013-7-31T9:2:45Z</time></trkpt>
<trkpt lat="46.799692" lon="7.089084"><ele></ele><time>2013-7-31T9:2:48Z</time></trkpt>
<trkpt lat="46.799544" lon="7.088767"><ele></ele><time>2013-7-31T9:2:51Z</time></trkpt>
<trkpt lat="46.799381" lon="7.088483"><ele></ele><time>2013-7-31T9:2:54Z</time></trkpt>
<trkpt lat="46.799181" lon="7.088108"><ele></ele><time>2013-7-31T9:2:57Z</time></trkpt>
<trkpt lat="46.799027" lon="7.087802"><ele></ele><time>2013-7-31T9:3:0Z</time></trkpt>
<trkpt lat="46.798862" lon="7.087522"><ele></ele><time>2013-7-31T9:3:3Z</time></trkpt>
<trkpt lat="46.798661" lon="7.087291"><ele></ele><time>2013-7-31T9:3:6Z</time></trkpt>
<trkpt lat="46.798471" lon="7.087038"><ele></ele><time>2013-7-31T9:3:9Z</time></trkpt>
<trkpt lat="46.798303" lon="7.086793"><ele></ele><time>2013-7-31T9:3:12Z</time></trkpt>
<trkpt lat="46.79812" lon="7.086535"><ele></ele><time>2013-7-31T9:3:15Z</time></trkpt>
<trkpt lat="46.797974" lon="7.086344"><ele></ele><time>2013-7-31T9:3:18Z</time></trkpt>
<trkpt lat="46.79782" lon="7.085936"><ele></ele><time>2013-7-31T9:3:21Z</time></trkpt>
<trkpt lat="46.797724" lon="7.085591"><ele></ele><time>2013-7-31T9:3:24Z</time></trkpt>
<trkpt lat="46.79764" lon="7.08526"><ele></ele><time>2013-7-31T9:3:27Z</time></trkpt>
<trkpt lat="46.797563" lon="7.08495"><ele></ele><time>2013-7-31T9:3:30Z</time></trkpt>
<trkpt lat="46.797451" lon="7.084522"><ele></ele><time>2013-7-31T9:3:33Z</time></trkpt>
<trkpt lat="46.797383" lon="7.08424"><ele></ele><time>2013-7-31T9:3:36Z</time></trkpt>
<trkpt lat="46.797289" lon="7.083902"><ele></ele><time>2013-7-31T9:3:39Z</time></trkpt>
<trkpt lat="46.797257" lon="7.08366"><ele></ele><time>2013-7-31T9:3:42Z</time></trkpt>
<trkpt lat="46.797239" lon="7.083369"><ele></ele><time>2013-7-31T9:3:45Z</time></trkpt>
<trkpt lat="46.79725" lon="7.083057"><ele></ele><time>2013-7-31T9:3:48Z</time></trkpt>
<trkpt lat="46.797268" lon="7.082697"><ele></ele><time>2013-7-31T9:3:51Z</time></trkpt>
<trkpt lat="46.797289" lon="7.082368"><ele></ele><time>2013-7-31T9:3:54Z</time></trkpt>
<trkpt lat="46.797295" lon="7.082008"><ele></ele><time>2013-7-31T9:3:57Z</time></trkpt>
<trkpt lat="46.797323" lon="7.081635"><ele></ele><time>2013-7-31T9:4:0Z</time></trkpt>
<trkpt lat="46.797325" lon="7.081353"><ele></ele><time>2013-7-31T9:4:3Z</time></trkpt>
<trkpt lat="46.797253" lon="7.081118"><ele></ele><time>2013-7-31T9:4:6Z</time></trkpt>
<trkpt lat="46.79708" lon="7.08093"><ele></ele><time>2013-7-31T9:4:9Z</time></trkpt>
<trkpt lat="46.796894" lon="7.080866"><ele></ele><time>2013-7-31T9:4:12Z</time></trkpt>
<trkpt lat="46.796753" lon="7.080849"><ele></ele><time>2013-7-31T9:4:15Z</time></trkpt>
<trkpt lat="46.796541" lon="7.080835"><ele></ele><time>2013-7-31T9:4:18Z</time></trkpt>
<trkpt lat="46.796345" lon="7.080851"><ele></ele><time>2013-7-31T9:4:21Z</time></trkpt>
<trkpt lat="46.796152" lon="7.080871"><ele></ele><time>2013-7-31T9:4:24Z</time></trkpt>
<trkpt lat="46.795962" lon="7.080841"><ele></ele><time>2013-7-31T9:4:27Z</time></trkpt>
<trkpt lat="46.795739" lon="7.080817"><ele></ele><time>2013-7-31T9:4:30Z</time></trkpt>
<trkpt lat="46.795537" lon="7.080744"><ele></ele><time>2013-7-31T9:4:33Z</time></trkpt>
<trkpt lat="46.795396" lon="7.080581"><ele></ele><time>2013-7-31T9:4:36Z</time></trkpt>
<trkpt lat="46.795293" lon="7.080458"><ele></ele><time>2013-7-31T9:4:39Z</time></trkpt>
<trkpt lat="46.795154" lon="7.080297"><ele></ele><time>2013-7-31T9:4:42Z</time></trkpt>
<trkpt lat="46.794971" lon="7.080142"><ele></ele><time>2013-7-31T9:4:45Z</time></trkpt>
<trkpt lat="46.794858" lon="7.080009"><ele></ele><time>2013-7-31T9:4:48Z</time></trkpt>
<trkpt lat="46.794722" lon="7.079884"><ele></ele><time>2013-7-31T9:4:51Z</time></trkpt>
<trkpt lat="46.794591" lon="7.079777"><ele></ele><time>2013-7-31T9:4:54Z</time></trkpt>
<trkpt lat="46.794451" lon="7.079707"><ele></ele><time>2013-7-31T9:4:57Z</time></trkpt>
<trkpt lat="46.794308" lon="7.079659"><ele></ele><time>2013-7-31T9:5:0Z</time></trkpt>
<trkpt lat="46.794183" lon="7.079579"><ele></ele><time>2013-7-31T9:5:3Z</time></trkpt>
<trkpt lat="46.794081" lon="7.079471"><ele></ele><time>2013-7-31T9:5:6Z</time></trkpt>
<trkpt lat="46.793947" lon="7.079429"><ele></ele><time>2013-7-31T9:5:9Z</time></trkpt>
<trkpt lat="46.793909" lon="7.07955"><ele></ele><time>2013-7-31T9:5:12Z</time></trkpt>
<trkpt lat="46.793824" lon="7.079771"><ele></ele><time>2013-7-31T9:5:15Z</time></trkpt>
<trkpt lat="46.793792" lon="7.079921"><ele></ele><time>2013-7-31T9:5:18Z</time></trkpt>
<trkpt lat="46.793755" lon="7.080055"><ele></ele><time>2013-7-31T9:5:21Z</time></trkpt>
<trkpt lat="46.793727" lon="7.080195"><ele></ele><time>2013-7-31T9:5:24Z</time></trkpt>
<trkpt lat="46.793696" lon="7.080328"><ele></ele><time>2013-7-31T9:5:27Z</time></trkpt>
<trkpt lat="46.793663" lon="7.080452"><ele></ele><time>2013-7-31T9:5:30Z</time></trkpt>
<trkpt lat="46.793637" lon="7.080594"><ele></ele><time>2013-7-31T9:5:33Z</time></trkpt>
<trkpt lat="46.79358" lon="7.080787"><ele></ele><time>2013-7-31T9:5:36Z</time></trkpt>
<trkpt lat="46.793556" lon="7.08093"><ele></ele><time>2013-7-31T9:5:39Z</time></trkpt>
<trkpt lat="46.793515" lon="7.081121"><ele></ele><time>2013-7-31T9:5:42Z</time></trkpt>
<trkpt lat="46.79347" lon="7.081284"><ele></ele><time>2013-7-31T9:5:45Z</time></trkpt>
<trkpt lat="46.793433" lon="7.081462"><ele></ele><time>2013-7-31T9:5:48Z</time></trkpt>
<trkpt lat="46.793422" lon="7.081606"><ele></ele><time>2013-7-31T9:5:51Z</time></trkpt>
<trkpt lat="46.793362" lon="7.081876"><ele></ele><time>2013-7-31T9:5:54Z</time></trkpt>
<trkpt lat="46.79332" lon="7.082105"><ele></ele><time>2013-7-31T9:5:57Z</time></trkpt>
<trkpt lat="46.793308" lon="7.082317"><ele></ele><time>2013-7-31T9:6:0Z</time></trkpt>
<trkpt lat="46.793278" lon="7.082557"><ele></ele><time>2013-7-31T9:6:3Z</time></trkpt>
<trkpt lat="46.793235" lon="7.082788"><ele></ele><time>2013-7-31T9:6:6Z</time></trkpt>
<trkpt lat="46.793185" lon="7.083001"><ele></ele><time>2013-7-31T9:6:9Z</time></trkpt>
<trkpt lat="46.793073" lon="7.083414"><ele></ele><time>2013-7-31T9:6:12Z</time></trkpt>
<trkpt lat="46.792909" lon="7.083738"><ele></ele><time>2013-7-31T9:6:15Z</time></trkpt>
<trkpt lat="46.792752" lon="7.084079"><ele></ele><time>2013-7-31T9:6:18Z</time></trkpt>
<trkpt lat="46.792582" lon="7.08446"><ele></ele><time>2013-7-31T9:6:21Z</time></trkpt>
<trkpt lat="46.792392" lon="7.084889"><ele></ele><time>2013-7-31T9:6:24Z</time></trkpt>
<trkpt lat="46.792265" lon="7.085172"><ele></ele><time>2013-7-31T9:6:27Z</time></trkpt>
<trkpt lat="46.792127" lon="7.085483"><ele></ele><time>2013-7-31T9:6:30Z</time></trkpt>
<trkpt lat="46.791984" lon="7.085763"><ele></ele><time>2013-7-31T9:6:33Z</time></trkpt>
<trkpt lat="46.791855" lon="7.086013"><ele></ele><time>2013-7-31T9:6:36Z</time></trkpt>
<trkpt lat="46.79179" lon="7.086134"><ele></ele><time>2013-7-31T9:6:39Z</time></trkpt>
<trkpt lat="46.791716" lon="7.086337"><ele></ele><time>2013-7-31T9:6:42Z</time></trkpt>
<trkpt lat="46.791622" lon="7.086547"><ele></ele><time>2013-7-31T9:6:45Z</time></trkpt>
<trkpt lat="46.791511" lon="7.086772"><ele></ele><time>2013-7-31T9:6:48Z</time></trkpt>
<trkpt lat="46.791399" lon="7.08702"><ele></ele><time>2013-7-31T9:6:51Z</time></trkpt>
<trkpt lat="46.791267" lon="7.087289"><ele></ele><time>2013-7-31T9:6:54Z</time></trkpt>
<trkpt lat="46.79112" lon="7.087587"><ele></ele><time>2013-7-31T9:6:57Z</time></trkpt>
<trkpt lat="46.790971" lon="7.087922"><ele></ele><time>2013-7-31T9:7:0Z</time></trkpt>
<trkpt lat="46.79082" lon="7.088257"><ele></ele><time>2013-7-31T9:7:3Z</time></trkpt>
<trkpt lat="46.790682" lon="7.088587"><ele></ele><time>2013-7-31T9:7:6Z</time></trkpt>
<trkpt lat="46.790495" lon="7.088803"><ele></ele><time>2013-7-31T9:7:9Z</time></trkpt>
<trkpt lat="46.79031" lon="7.089078"><ele></ele><time>2013-7-31T9:7:12Z</time></trkpt>
<trkpt lat="46.790124" lon="7.089331"><ele></ele><time>2013-7-31T9:7:15Z</time></trkpt>
<trkpt lat="46.789988" lon="7.089534"><ele></ele><time>2013-7-31T9:7:18Z</time></trkpt>
<trkpt lat="46.789801" lon="7.089792"><ele></ele><time>2013-7-31T9:7:21Z</time></trkpt>
<trkpt lat="46.789489" lon="7.090082"><ele></ele><time>2013-7-31T9:7:24Z</time></trkpt>
<trkpt lat="46.789189" lon="7.090087"><ele></ele><time>2013-7-31T9:7:27Z</time></trkpt>
<trkpt lat="46.788878" lon="7.089974"><ele></ele><time>2013-7-31T9:7:30Z</time></trkpt>
<trkpt lat="46.788587" lon="7.089839"><ele></ele><time>2013-7-31T9:7:33Z</time></trkpt>
<trkpt lat="46.788282" lon="7.08984"><ele></ele><time>2013-7-31T9:7:36Z</time></trkpt>
<trkpt lat="46.788008" lon="7.090002"><ele></ele><time>2013-7-31T9:7:39Z</time></trkpt>
<trkpt lat="46.787821" lon="7.090414"><ele></ele><time>2013-7-31T9:7:42Z</time></trkpt>
<trkpt lat="46.787654" lon="7.091055"><ele></ele><time>2013-7-31T9:7:45Z</time></trkpt>
<trkpt lat="46.787486" lon="7.091652"><ele></ele><time>2013-7-31T9:7:48Z</time></trkpt>
<trkpt lat="46.787559" lon="7.09224"><ele></ele><time>2013-7-31T9:7:51Z</time></trkpt>
<trkpt lat="46.787692" lon="7.092769"><ele></ele><time>2013-7-31T9:7:54Z</time></trkpt>
<trkpt lat="46.787816" lon="7.093225"><ele></ele><time>2013-7-31T9:7:57Z</time></trkpt>
<trkpt lat="46.787706" lon="7.09351"><ele></ele><time>2013-7-31T9:8:0Z</time></trkpt>
<trkpt lat="46.787491" lon="7.093423"><ele></ele><time>2013-7-31T9:8:3Z</time></trkpt>
<trkpt lat="46.787342" lon="7.092989"><ele></ele><time>2013-7-31T9:8:6Z</time></trkpt>
<trkpt lat="46.787161" lon="7.092458"><ele></ele><time>2013-7-31T9:8:9Z</time></trkpt>
<trkpt lat="46.787005" lon="7.092003"><ele></ele><time>2013-7-31T9:8:12Z</time></trkpt>
<trkpt lat="46.7867" lon="7.09161"><ele></ele><time>2013-7-31T9:8:15Z</time></trkpt>
<trkpt lat="46.786336" lon="7.091624"><ele></ele><time>2013-7-31T9:8:18Z</time></trkpt>
<trkpt lat="46.786191" lon="7.091672"><ele></ele><time>2013-7-31T9:8:21Z</time></trkpt>
<trkpt lat="46.786096" lon="7.091938"><ele></ele><time>2013-7-31T9:8:24Z</time></trkpt>
<trkpt lat="46.785933" lon="7.092286"><ele></ele><time>2013-7-31T9:8:27Z</time></trkpt>
<trkpt lat="46.78577" lon="7.092622"><ele></ele><time>2013-7-31T9:8:30Z</time></trkpt>
<trkpt lat="46.785585" lon="7.093307"><ele></ele><time>2013-7-31T9:8:33Z</time></trkpt>
<trkpt lat="46.785654" lon="7.093917"><ele></ele><time>2013-7-31T9:8:36Z</time></trkpt>
<trkpt lat="46.78582" lon="7.094491"><ele></ele><time>2013-7-31T9:8:39Z</time></trkpt>
<trkpt lat="46.785718" lon="7.094944"><ele></ele><time>2013-7-31T9:8:42Z</time></trkpt>
<trkpt lat="46.785493" lon="7.095403"><ele></ele><time>2013-7-31T9:8:45Z</time></trkpt>
<trkpt lat="46.785305" lon="7.095827"><ele></ele><time>2013-7-31T9:8:48Z</time></trkpt>
<trkpt lat="46.784962" lon="7.096025"><ele></ele><time>2013-7-31T9:8:51Z</time></trkpt>
<trkpt lat="46.784722" lon="7.09615"><ele></ele><time>2013-7-31T9:8:54Z</time></trkpt>
<trkpt lat="46.784593" lon="7.096358"><ele></ele><time>2013-7-31T9:8:57Z</time></trkpt>
<trkpt lat="46.784582" lon="7.096639"><ele></ele><time>2013-7-31T9:9:0Z</time></trkpt>
<trkpt lat="46.784579" lon="7.096848"><ele></ele><time>2013-7-31T9:9:3Z</time></trkpt>
<trkpt lat="46.784594" lon="7.097158"><ele></ele><time>2013-7-31T9:9:6Z</time></trkpt>
<trkpt lat="46.784474" lon="7.097513"><ele></ele><time>2013-7-31T9:9:9Z</time></trkpt>
<trkpt lat="46.784392" lon="7.097841"><ele></ele><time>2013-7-31T9:9:12Z</time></trkpt>
<trkpt lat="46.784307" lon="7.098176"><ele></ele><time>2013-7-31T9:9:15Z</time></trkpt>
<trkpt lat="46.784286" lon="7.098547"><ele></ele><time>2013-7-31T9:9:18Z</time></trkpt>
<trkpt lat="46.78438" lon="7.098912"><ele></ele><time>2013-7-31T9:9:21Z</time></trkpt>
<trkpt lat="46.784495" lon="7.099265"><ele></ele><time>2013-7-31T9:9:24Z</time></trkpt>
<trkpt lat="46.784462" lon="7.099665"><ele></ele><time>2013-7-31T9:9:27Z</time></trkpt>
<trkpt lat="46.784404" lon="7.099963"><ele></ele><time>2013-7-31T9:9:30Z</time></trkpt>
<trkpt lat="46.784332" lon="7.100062"><ele></ele><time>2013-7-31T9:9:33Z</time></trkpt>
<trkpt lat="46.784147" lon="7.100163"><ele></ele><time>2013-7-31T9:9:36Z</time></trkpt>
<trkpt lat="46.783957" lon="7.100366"><ele></ele><time>2013-7-31T9:9:39Z</time></trkpt>
<trkpt lat="46.783792" lon="7.100644"><ele></ele><time>2013-7-31T9:9:42Z</time></trkpt>
<trkpt lat="46.783782" lon="7.100982"><ele></ele><time>2013-7-31T9:9:45Z</time></trkpt>
<trkpt lat="46.783806" lon="7.101317"><ele></ele><time>2013-7-31T9:9:48Z</time></trkpt>
<trkpt lat="46.78382" lon="7.101684"><ele></ele><time>2013-7-31T9:9:51Z</time></trkpt>
<trkpt lat="46.783825" lon="7.101953"><ele></ele><time>2013-7-31T9:9:54Z</time></trkpt>
<trkpt lat="46.783846" lon="7.102307"><ele></ele><time>2013-7-31T9:9:57Z</time></trkpt>
<trkpt lat="46.783866" lon="7.10268"><ele></ele><time>2013-7-31T9:10:0Z</time></trkpt>
<trkpt lat="46.783896" lon="7.103156"><ele></ele><time>2013-7-31T9:10:3Z</time></trkpt>
<trkpt lat="46.783952" lon="7.103651"><ele></ele><time>2013-7-31T9:10:6Z</time></trkpt>
<trkpt lat="46.783976" lon="7.104207"><ele></ele><time>2013-7-31T9:10:9Z</time></trkpt>
<trkpt lat="46.784077" lon="7.104771"><ele></ele><time>2013-7-31T9:10:12Z</time></trkpt>
<trkpt lat="46.784212" lon="7.105307"><ele></ele><time>2013-7-31T9:10:15Z</time></trkpt>
<trkpt lat="46.784302" lon="7.105837"><ele></ele><time>2013-7-31T9:10:18Z</time></trkpt>
<trkpt lat="46.784426" lon="7.106319"><ele></ele><time>2013-7-31T9:10:21Z</time></trkpt>
<trkpt lat="46.784524" lon="7.106781"><ele></ele><time>2013-7-31T9:10:24Z</time></trkpt>
<trkpt lat="46.784578" lon="7.107211"><ele></ele><time>2013-7-31T9:10:27Z</time></trkpt>
<trkpt lat="46.784592" lon="7.107603"><ele></ele><time>2013-7-31T9:10:30Z</time></trkpt>
<trkpt lat="46.784629" lon="7.107965"><ele></ele><time>2013-7-31T9:10:33Z</time></trkpt>
<trkpt lat="46.784769" lon="7.108272"><ele></ele><time>2013-7-31T9:10:36Z</time></trkpt>
<trkpt lat="46.784948" lon="7.108528"><ele></ele><time>2013-7-31T9:10:39Z</time></trkpt>
<trkpt lat="46.785091" lon="7.10883"><ele></ele><time>2013-7-31T9:10:42Z</time></trkpt>
<trkpt lat="46.78528" lon="7.109145"><ele></ele><time>2013-7-31T9:10:45Z</time></trkpt>
<trkpt lat="46.785418" lon="7.109474"><ele></ele><time>2013-7-31T9:10:48Z</time></trkpt>
<trkpt lat="46.785527" lon="7.109733"><ele></ele><time>2013-7-31T9:10:51Z</time></trkpt>
<trkpt lat="46.785594" lon="7.110008"><ele></ele><time>2013-7-31T9:10:54Z</time></trkpt>
<trkpt lat="46.785353" lon="7.110187"><ele></ele><time>2013-7-31T9:10:57Z</time></trkpt>
<trkpt lat="46.785144" lon="7.110144"><ele></ele><time>2013-7-31T9:11:0Z</time></trkpt>
<trkpt lat="46.784939" lon="7.110101"><ele></ele><time>2013-7-31T9:11:3Z</time></trkpt>
<trkpt lat="46.784757" lon="7.110024"><ele></ele><time>2013-7-31T9:11:6Z</time></trkpt>
<trkpt lat="46.784576" lon="7.109967"><ele></ele><time>2013-7-31T9:11:9Z</time></trkpt>
<trkpt lat="46.784404" lon="7.11001"><ele></ele><time>2013-7-31T9:11:12Z</time></trkpt>
<trkpt lat="46.784243" lon="7.110112"><ele></ele><time>2013-7-31T9:11:15Z</time></trkpt>
<trkpt lat="46.784085" lon="7.110228"><ele></ele><time>2013-7-31T9:11:18Z</time></trkpt>
<trkpt lat="46.783935" lon="7.110344"><ele></ele><time>2013-7-31T9:11:21Z</time></trkpt>
<trkpt lat="46.783795" lon="7.11046"><ele></ele><time>2013-7-31T9:11:24Z</time></trkpt>
<trkpt lat="46.783658" lon="7.110573"><ele></ele><time>2013-7-31T9:11:27Z</time></trkpt>
<trkpt lat="46.783529" lon="7.110691"><ele></ele><time>2013-7-31T9:11:30Z</time></trkpt>
<trkpt lat="46.78339" lon="7.110784"><ele></ele><time>2013-7-31T9:11:33Z</time></trkpt>
<trkpt lat="46.78325" lon="7.110876"><ele></ele><time>2013-7-31T9:11:36Z</time></trkpt>
<trkpt lat="46.783109" lon="7.110969"><ele></ele><time>2013-7-31T9:11:39Z</time></trkpt>
<trkpt lat="46.782972" lon="7.111056"><ele></ele><time>2013-7-31T9:11:42Z</time></trkpt>
<trkpt lat="46.782869" lon="7.111114"><ele></ele><time>2013-7-31T9:11:45Z</time></trkpt>
<trkpt lat="46.782731" lon="7.111192"><ele></ele><time>2013-7-31T9:11:48Z</time></trkpt>
<trkpt lat="46.782595" lon="7.111274"><ele></ele><time>2013-7-31T9:11:51Z</time></trkpt>
<trkpt lat="46.782426" lon="7.111361"><ele></ele><time>2013-7-31T9:11:54Z</time></trkpt>
<trkpt lat="46.782333" lon="7.111416"><ele></ele><time>2013-7-31T9:11:57Z</time></trkpt>
<trkpt lat="46.782188" lon="7.111512"><ele></ele><time>2013-7-31T9:12:0Z</time></trkpt>
<trkpt lat="46.782078" lon="7.111577"><ele></ele><time>2013-7-31T9:12:3Z</time></trkpt>
<trkpt lat="46.781956" lon="7.111668"><ele></ele><time>2013-7-31T9:12:6Z</time></trkpt>
<trkpt lat="46.781856" lon="7.111748"><ele></ele><time>2013-7-31T9:12:9Z</time></trkpt>
<trkpt lat="46.781749" lon="7.111915"><ele></ele><time>2013-7-31T9:12:12Z</time></trkpt>
<trkpt lat="46.781654" lon="7.112131"><ele></ele><time>2013-7-31T9:12:15Z</time></trkpt>
<trkpt lat="46.781589" lon="7.11203"><ele></ele><time>2013-7-31T9:12:18Z</time></trkpt>
<trkpt lat="46.781512" lon="7.111824"><ele></ele><time>2013-7-31T9:12:21Z</time></trkpt>
<trkpt lat="46.781426" lon="7.111714"><ele></ele><time>2013-7-31T9:12:24Z</time></trkpt>
<trkpt lat="46.78133" lon="7.111604"><ele></ele><time>2013-7-31T9:12:27Z</time></trkpt>
<trkpt lat="46.781219" lon="7.111501"><ele></ele><time>2013-7-31T9:12:30Z</time></trkpt>
<trkpt lat="46.781116" lon="7.111416"><ele></ele><time>2013-7-31T9:12:33Z</time></trkpt>
<trkpt lat="46.781014" lon="7.11126"><ele></ele><time>2013-7-31T9:12:36Z</time></trkpt>
<trkpt lat="46.780941" lon="7.111088"><ele></ele><time>2013-7-31T9:12:39Z</time></trkpt>
<trkpt lat="46.780885" lon="7.110924"><ele></ele><time>2013-7-31T9:12:42Z</time></trkpt>
<trkpt lat="46.78081" lon="7.110777"><ele></ele><time>2013-7-31T9:12:45Z</time></trkpt>
<trkpt lat="46.780736" lon="7.11063"><ele></ele><time>2013-7-31T9:12:48Z</time></trkpt>
<trkpt lat="46.780654" lon="7.110473"><ele></ele><time>2013-7-31T9:12:51Z</time></trkpt>
<trkpt lat="46.780576" lon="7.110342"><ele></ele><time>2013-7-31T9:12:54Z</time></trkpt>
<trkpt lat="46.780488" lon="7.11023"><ele></ele><time>2013-7-31T9:12:57Z</time></trkpt>
<trkpt lat="46.780405" lon="7.110114"><ele></ele><time>2013-7-31T9:13:0Z</time></trkpt>
<trkpt lat="46.780305" lon="7.10997"><ele></ele><time>2013-7-31T9:13:3Z</time></trkpt>
<trkpt lat="46.780196" lon="7.109813"><ele></ele><time>2013-7-31T9:13:6Z</time></trkpt>
<trkpt lat="46.780094" lon="7.109674"><ele></ele><time>2013-7-31T9:13:9Z</time></trkpt>
<trkpt lat="46.78004" lon="7.109518"><ele></ele><time>2013-7-31T9:13:12Z</time></trkpt>
<trkpt lat="46.779946" lon="7.10942"><ele></ele><time>2013-7-31T9:13:15Z</time></trkpt>
<trkpt lat="46.779851" lon="7.109314"><ele></ele><time>2013-7-31T9:13:18Z</time></trkpt>
<trkpt lat="46.779783" lon="7.109219"><ele></ele><time>2013-7-31T9:13:21Z</time></trkpt>
<trkpt lat="46.779715" lon="7.109118"><ele></ele><time>2013-7-31T9:13:24Z</time></trkpt>
<trkpt lat="46.779646" lon="7.108996"><ele></ele><time>2013-7-31T9:13:27Z</time></trkpt>
<trkpt lat="46.77956" lon="7.10886"><ele></ele><time>2013-7-31T9:13:30Z</time></trkpt>
<trkpt lat="46.779471" lon="7.10873"><ele></ele><time>2013-7-31T9:13:33Z</time></trkpt>
<trkpt lat="46.779387" lon="7.108591"><ele></ele><time>2013-7-31T9:13:36Z</time></trkpt>
<trkpt lat="46.779306" lon="7.108499"><ele></ele><time>2013-7-31T9:13:39Z</time></trkpt>
<trkpt lat="46.77923" lon="7.108397"><ele></ele><time>2013-7-31T9:13:42Z</time></trkpt>
<trkpt lat="46.779145" lon="7.108315"><ele></ele><time>2013-7-31T9:13:45Z</time></trkpt>
<trkpt lat="46.779023" lon="7.108179"><ele></ele><time>2013-7-31T9:13:48Z</time></trkpt>
<trkpt lat="46.778934" lon="7.108021"><ele></ele><time>2013-7-31T9:13:51Z</time></trkpt>
<trkpt lat="46.778846" lon="7.107901"><ele></ele><time>2013-7-31T9:13:54Z</time></trkpt>
<trkpt lat="46.778726" lon="7.107773"><ele></ele><time>2013-7-31T9:13:57Z</time></trkpt>
<trkpt lat="46.778657" lon="7.107655"><ele></ele><time>2013-7-31T9:14:0Z</time></trkpt>
<trkpt lat="46.778584" lon="7.107552"><ele></ele><time>2013-7-31T9:14:3Z</time></trkpt>
<trkpt lat="46.778502" lon="7.107405"><ele></ele><time>2013-7-31T9:14:6Z</time></trkpt>
<trkpt lat="46.778428" lon="7.107312"><ele></ele><time>2013-7-31T9:14:9Z</time></trkpt>
<trkpt lat="46.77833" lon="7.10718"><ele></ele><time>2013-7-31T9:14:12Z</time></trkpt>
<trkpt lat="46.778269" lon="7.107024"><ele></ele><time>2013-7-31T9:14:15Z</time></trkpt>
<trkpt lat="46.77818" lon="7.106931"><ele></ele><time>2013-7-31T9:14:18Z</time></trkpt>
<trkpt lat="46.778028" lon="7.1068"><ele></ele><time>2013-7-31T9:14:21Z</time></trkpt>
<trkpt lat="46.77794" lon="7.106711"><ele></ele><time>2013-7-31T9:14:24Z</time></trkpt>
<trkpt lat="46.777808" lon="7.106572"><ele></ele><time>2013-7-31T9:14:27Z</time></trkpt>
<trkpt lat="46.777707" lon="7.106461"><ele></ele><time>2013-7-31T9:14:30Z</time></trkpt>
<trkpt lat="46.777566" lon="7.106304"><ele></ele><time>2013-7-31T9:14:33Z</time></trkpt>
<trkpt lat="46.77745" lon="7.106197"><ele></ele><time>2013-7-31T9:14:36Z</time></trkpt>
<trkpt lat="46.777342" lon="7.106071"><ele></ele><time>2013-7-31T9:14:39Z</time></trkpt>
<trkpt lat="46.777267" lon="7.105931"><ele></ele><time>2013-7-31T9:14:42Z</time></trkpt>
<trkpt lat="46.777169" lon="7.105829"><ele></ele><time>2013-7-31T9:14:45Z</time></trkpt>
<trkpt lat="46.777079" lon="7.10574"><ele></ele><time>2013-7-31T9:14:48Z</time></trkpt>
<trkpt lat="46.776971" lon="7.105611"><ele></ele><time>2013-7-31T9:14:51Z</time></trkpt>
<trkpt lat="46.776893" lon="7.105542"><ele></ele><time>2013-7-31T9:14:54Z</time></trkpt>
<trkpt lat="46.776765" lon="7.105376"><ele></ele><time>2013-7-31T9:14:57Z</time></trkpt>
<trkpt lat="46.776598" lon="7.105205"><ele></ele><time>2013-7-31T9:15:0Z</time></trkpt>
<trkpt lat="46.776519" lon="7.105133"><ele></ele><time>2013-7-31T9:15:3Z</time></trkpt>
<trkpt lat="46.776411" lon="7.104979"><ele></ele><time>2013-7-31T9:15:6Z</time></trkpt>
<trkpt lat="46.776293" lon="7.104877"><ele></ele><time>2013-7-31T9:15:9Z</time></trkpt>
<trkpt lat="46.776179" lon="7.104772"><ele></ele><time>2013-7-31T9:15:12Z</time></trkpt>
<trkpt lat="46.776068" lon="7.104667"><ele></ele><time>2013-7-31T9:15:15Z</time></trkpt>
<trkpt lat="46.77594" lon="7.104545"><ele></ele><time>2013-7-31T9:15:18Z</time></trkpt>
<trkpt lat="46.775832" lon="7.104401"><ele></ele><time>2013-7-31T9:15:21Z</time></trkpt>
<trkpt lat="46.775764" lon="7.104302"><ele></ele><time>2013-7-31T9:15:24Z</time></trkpt>
<trkpt lat="46.775661" lon="7.104216"><ele></ele><time>2013-7-31T9:15:27Z</time></trkpt>
<trkpt lat="46.775531" lon="7.104099"><ele></ele><time>2013-7-31T9:15:30Z</time></trkpt>
<trkpt lat="46.775381" lon="7.103959"><ele></ele><time>2013-7-31T9:15:33Z</time></trkpt>
<trkpt lat="46.775193" lon="7.10382"><ele></ele><time>2013-7-31T9:15:36Z</time></trkpt>
<trkpt lat="46.775065" lon="7.103687"><ele></ele><time>2013-7-31T9:15:39Z</time></trkpt>
<trkpt lat="46.774893" lon="7.103586"><ele></ele><time>2013-7-31T9:15:42Z</time></trkpt>
<trkpt lat="46.77471" lon="7.10368"><ele></ele><time>2013-7-31T9:15:45Z</time></trkpt>
<trkpt lat="46.774696" lon="7.103877"><ele></ele><time>2013-7-31T9:15:48Z</time></trkpt>
<trkpt lat="46.774684" lon="7.104063"><ele></ele><time>2013-7-31T9:15:51Z</time></trkpt>
<trkpt lat="46.77467" lon="7.104195"><ele></ele><time>2013-7-31T9:15:54Z</time></trkpt>
<trkpt lat="46.774627" lon="7.104417"><ele></ele><time>2013-7-31T9:15:57Z</time></trkpt>
<trkpt lat="46.774587" lon="7.104571"><ele></ele><time>2013-7-31T9:16:0Z</time></trkpt>
<trkpt lat="46.774561" lon="7.104716"><ele></ele><time>2013-7-31T9:16:3Z</time></trkpt>
<trkpt lat="46.774549" lon="7.104859"><ele></ele><time>2013-7-31T9:16:6Z</time></trkpt>
<trkpt lat="46.774532" lon="7.10501"><ele></ele><time>2013-7-31T9:16:9Z</time></trkpt>
<trkpt lat="46.774501" lon="7.105183"><ele></ele><time>2013-7-31T9:16:12Z</time></trkpt>
<trkpt lat="46.774456" lon="7.105349"><ele></ele><time>2013-7-31T9:16:15Z</time></trkpt>
<trkpt lat="46.774355" lon="7.105461"><ele></ele><time>2013-7-31T9:16:18Z</time></trkpt>
<trkpt lat="46.774209" lon="7.105453"><ele></ele><time>2013-7-31T9:16:21Z</time></trkpt>
<trkpt lat="46.774043" lon="7.105438"><ele></ele><time>2013-7-31T9:16:24Z</time></trkpt>
<trkpt lat="46.773883" lon="7.105596"><ele></ele><time>2013-7-31T9:16:27Z</time></trkpt>
<trkpt lat="46.773763" lon="7.105926"><ele></ele><time>2013-7-31T9:16:30Z</time></trkpt>
<trkpt lat="46.773691" lon="7.106215"><ele></ele><time>2013-7-31T9:16:33Z</time></trkpt>
<trkpt lat="46.773596" lon="7.106638"><ele></ele><time>2013-7-31T9:16:36Z</time></trkpt>
<trkpt lat="46.773434" lon="7.107017"><ele></ele><time>2013-7-31T9:16:39Z</time></trkpt>
<trkpt lat="46.773097" lon="7.107525"><ele></ele><time>2013-7-31T9:16:42Z</time></trkpt>
<trkpt lat="46.772854" lon="7.108018"><ele></ele><time>2013-7-31T9:16:45Z</time></trkpt>
<trkpt lat="46.77268" lon="7.108395"><ele></ele><time>2013-7-31T9:16:48Z</time></trkpt>
<trkpt lat="46.772323" lon="7.108895"><ele></ele><time>2013-7-31T9:16:51Z</time></trkpt>
<trkpt lat="46.772131" lon="7.109393"><ele></ele><time>2013-7-31T9:16:54Z</time></trkpt>
<trkpt lat="46.772053" lon="7.109892"><ele></ele><time>2013-7-31T9:16:57Z</time></trkpt>
<trkpt lat="46.771904" lon="7.110341"><ele></ele><time>2013-7-31T9:17:0Z</time></trkpt>
<trkpt lat="46.771718" lon="7.110744"><ele></ele><time>2013-7-31T9:17:3Z</time></trkpt>
<trkpt lat="46.771512" lon="7.111128"><ele></ele><time>2013-7-31T9:17:6Z</time></trkpt>
<trkpt lat="46.77132" lon="7.111527"><ele></ele><time>2013-7-31T9:17:9Z</time></trkpt>
<trkpt lat="46.77113" lon="7.111887"><ele></ele><time>2013-7-31T9:17:12Z</time></trkpt>
<trkpt lat="46.77095" lon="7.112242"><ele></ele><time>2013-7-31T9:17:15Z</time></trkpt>
<trkpt lat="46.770663" lon="7.112931"><ele></ele><time>2013-7-31T9:17:18Z</time></trkpt>
<trkpt lat="46.770512" lon="7.113467"><ele></ele><time>2013-7-31T9:17:21Z</time></trkpt>
<trkpt lat="46.77043" lon="7.114055"><ele></ele><time>2013-7-31T9:17:24Z</time></trkpt>
<trkpt lat="46.77035" lon="7.114661"><ele></ele><time>2013-7-31T9:17:27Z</time></trkpt>
<trkpt lat="46.770114" lon="7.115112"><ele></ele><time>2013-7-31T9:17:30Z</time></trkpt>
<trkpt lat="46.769891" lon="7.114996"><ele></ele><time>2013-7-31T9:17:33Z</time></trkpt>
<trkpt lat="46.769796" lon="7.114677"><ele></ele><time>2013-7-31T9:17:36Z</time></trkpt>
<trkpt lat="46.769728" lon="7.114285"><ele></ele><time>2013-7-31T9:17:39Z</time></trkpt>
<trkpt lat="46.769502" lon="7.113937"><ele></ele><time>2013-7-31T9:17:42Z</time></trkpt>
<trkpt lat="46.769089" lon="7.114012"><ele></ele><time>2013-7-31T9:17:45Z</time></trkpt>
<trkpt lat="46.768714" lon="7.114171"><ele></ele><time>2013-7-31T9:17:48Z</time></trkpt>
<trkpt lat="46.768364" lon="7.114284"><ele></ele><time>2013-7-31T9:17:51Z</time></trkpt>
<trkpt lat="46.76808" lon="7.114382"><ele></ele><time>2013-7-31T9:17:54Z</time></trkpt>
<trkpt lat="46.767828" lon="7.114443"><ele></ele><time>2013-7-31T9:17:57Z</time></trkpt>
<trkpt lat="46.767592" lon="7.114386"><ele></ele><time>2013-7-31T9:18:0Z</time></trkpt>
<trkpt lat="46.767442" lon="7.114221"><ele></ele><time>2013-7-31T9:18:3Z</time></trkpt>
<trkpt lat="46.767259" lon="7.11398"><ele></ele><time>2013-7-31T9:18:6Z</time></trkpt>
<trkpt lat="46.76708" lon="7.113749"><ele></ele><time>2013-7-31T9:18:9Z</time></trkpt>
<trkpt lat="46.766884" lon="7.113535"><ele></ele><time>2013-7-31T9:18:12Z</time></trkpt>
<trkpt lat="46.766648" lon="7.113224"><ele></ele><time>2013-7-31T9:18:15Z</time></trkpt>
<trkpt lat="46.766441" lon="7.112965"><ele></ele><time>2013-7-31T9:18:18Z</time></trkpt>
<trkpt lat="46.76624" lon="7.112951"><ele></ele><time>2013-7-31T9:18:21Z</time></trkpt>
<trkpt lat="46.766107" lon="7.113145"><ele></ele><time>2013-7-31T9:18:24Z</time></trkpt>
<trkpt lat="46.766042" lon="7.113476"><ele></ele><time>2013-7-31T9:18:27Z</time></trkpt>
<trkpt lat="46.766079" lon="7.113791"><ele></ele><time>2013-7-31T9:18:30Z</time></trkpt>
<trkpt lat="46.766068" lon="7.114017"><ele></ele><time>2013-7-31T9:18:33Z</time></trkpt>
<trkpt lat="46.766052" lon="7.1142"><ele></ele><time>2013-7-31T9:18:36Z</time></trkpt>
<trkpt lat="46.765954" lon="7.114443"><ele></ele><time>2013-7-31T9:18:39Z</time></trkpt>
<trkpt lat="46.765857" lon="7.114625"><ele></ele><time>2013-7-31T9:18:42Z</time></trkpt>
<trkpt lat="46.765746" lon="7.114774"><ele></ele><time>2013-7-31T9:18:45Z</time></trkpt>
<trkpt lat="46.765635" lon="7.114827"><ele></ele><time>2013-7-31T9:18:48Z</time></trkpt>
<trkpt lat="46.765525" lon="7.114869"><ele></ele><time>2013-7-31T9:18:51Z</time></trkpt>
<trkpt lat="46.765419" lon="7.114887"><ele></ele><time>2013-7-31T9:18:54Z</time></trkpt>
<trkpt lat="46.765323" lon="7.114978"><ele></ele><time>2013-7-31T9:18:57Z</time></trkpt>
<trkpt lat="46.765227" lon="7.115096"><ele></ele><time>2013-7-31T9:19:0Z</time></trkpt>
<trkpt lat="46.765146" lon="7.1153"><ele></ele><time>2013-7-31T9:19:3Z</time></trkpt>
<trkpt lat="46.765097" lon="7.115706"><ele></ele><time>2013-7-31T9:19:6Z</time></trkpt>
<trkpt lat="46.765097" lon="7.115992"><ele></ele><time>2013-7-31T9:19:9Z</time></trkpt>
<trkpt lat="46.765112" lon="7.116264"><ele></ele><time>2013-7-31T9:19:12Z</time></trkpt>
<trkpt lat="46.765194" lon="7.11655"><ele></ele><time>2013-7-31T9:19:15Z</time></trkpt>
<trkpt lat="46.765384" lon="7.116786"><ele></ele><time>2013-7-31T9:19:18Z</time></trkpt>
<trkpt lat="46.765528" lon="7.116968"><ele></ele><time>2013-7-31T9:19:21Z</time></trkpt>
<trkpt lat="46.76565" lon="7.117152"><ele></ele><time>2013-7-31T9:19:24Z</time></trkpt>
<trkpt lat="46.765688" lon="7.117391"><ele></ele><time>2013-7-31T9:19:27Z</time></trkpt>
<trkpt lat="46.765563" lon="7.11749"><ele></ele><time>2013-7-31T9:19:30Z</time></trkpt>
<trkpt lat="46.76537" lon="7.117371"><ele></ele><time>2013-7-31T9:19:33Z</time></trkpt>
<trkpt lat="46.765376" lon="7.117533"><ele></ele><time>2013-7-31T9:19:36Z</time></trkpt>
<trkpt lat="46.765484" lon="7.117714"><ele></ele><time>2013-7-31T9:19:39Z</time></trkpt>
<trkpt lat="46.765513" lon="7.117899"><ele></ele><time>2013-7-31T9:19:42Z</time></trkpt>
<trkpt lat="46.765379" lon="7.118225"><ele></ele><time>2013-7-31T9:19:45Z</time></trkpt>
<trkpt lat="46.765431" lon="7.118502"><ele></ele><time>2013-7-31T9:19:48Z</time></trkpt>
<trkpt lat="46.765766" lon="7.11842"><ele></ele><time>2013-7-31T9:19:51Z</time></trkpt>
<trkpt lat="46.766096" lon="7.118267"><ele></ele><time>2013-7-31T9:19:54Z</time></trkpt>
<trkpt lat="46.766441" lon="7.118133"><ele></ele><time>2013-7-31T9:19:57Z</time></trkpt>
<trkpt lat="46.766899" lon="7.117935"><ele></ele><time>2013-7-31T9:20:0Z</time></trkpt>
<trkpt lat="46.767271" lon="7.1179"><ele></ele><time>2013-7-31T9:20:3Z</time></trkpt>
<trkpt lat="46.76764" lon="7.118019"><ele></ele><time>2013-7-31T9:20:6Z</time></trkpt>
<trkpt lat="46.767902" lon="7.118351"><ele></ele><time>2013-7-31T9:20:9Z</time></trkpt>
<trkpt lat="46.767995" lon="7.118741"><ele></ele><time>2013-7-31T9:20:12Z</time></trkpt>
<trkpt lat="46.768079" lon="7.11911"><ele></ele><time>2013-7-31T9:20:15Z</time></trkpt>
<trkpt lat="46.768139" lon="7.11949"><ele></ele><time>2013-7-31T9:20:18Z</time></trkpt>
<trkpt lat="46.768214" lon="7.119833"><ele></ele><time>2013-7-31T9:20:21Z</time></trkpt>
<trkpt lat="46.768393" lon="7.120121"><ele></ele><time>2013-7-31T9:20:24Z</time></trkpt>
<trkpt lat="46.768577" lon="7.120259"><ele></ele><time>2013-7-31T9:20:27Z</time></trkpt>
<trkpt lat="46.768718" lon="7.120386"><ele></ele><time>2013-7-31T9:20:30Z</time></trkpt>
<trkpt lat="46.768899" lon="7.120387"><ele></ele><time>2013-7-31T9:20:33Z</time></trkpt>
<trkpt lat="46.769023" lon="7.120254"><ele></ele><time>2013-7-31T9:20:36Z</time></trkpt>
<trkpt lat="46.769116" lon="7.12011"><ele></ele><time>2013-7-31T9:20:39Z</time></trkpt>
<trkpt lat="46.769243" lon="7.11988"><ele></ele><time>2013-7-31T9:20:42Z</time></trkpt>
<trkpt lat="46.769453" lon="7.119774"><ele></ele><time>2013-7-31T9:20:45Z</time></trkpt>
<trkpt lat="46.769602" lon="7.119813"><ele></ele><time>2013-7-31T9:20:48Z</time></trkpt>
<trkpt lat="46.769709" lon="7.119937"><ele></ele><time>2013-7-31T9:20:51Z</time></trkpt>
<trkpt lat="46.76973" lon="7.120115"><ele></ele><time>2013-7-31T9:20:54Z</time></trkpt>
<trkpt lat="46.769779" lon="7.120246"><ele></ele><time>2013-7-31T9:20:57Z</time></trkpt>
<trkpt lat="46.769828" lon="7.120423"><ele></ele><time>2013-7-31T9:21:0Z</time></trkpt>
<trkpt lat="46.769897" lon="7.120696"><ele></ele><time>2013-7-31T9:21:3Z</time></trkpt>
<trkpt lat="46.769934" lon="7.121003"><ele></ele><time>2013-7-31T9:21:6Z</time></trkpt>
<trkpt lat="46.769931" lon="7.121346"><ele></ele><time>2013-7-31T9:21:9Z</time></trkpt>
<trkpt lat="46.769899" lon="7.121619"><ele></ele><time>2013-7-31T9:21:12Z</time></trkpt>
<trkpt lat="46.769844" lon="7.121837"><ele></ele><time>2013-7-31T9:21:15Z</time></trkpt>
<trkpt lat="46.769803" lon="7.122016"><ele></ele><time>2013-7-31T9:21:18Z</time></trkpt>
<trkpt lat="46.769774" lon="7.12229"><ele></ele><time>2013-7-31T9:21:21Z</time></trkpt>
<trkpt lat="46.769752" lon="7.122532"><ele></ele><time>2013-7-31T9:21:24Z</time></trkpt>
<trkpt lat="46.769687" lon="7.1228"><ele></ele><time>2013-7-31T9:21:27Z</time></trkpt>
<trkpt lat="46.769653" lon="7.123005"><ele></ele><time>2013-7-31T9:21:30Z</time></trkpt>
<trkpt lat="46.769589" lon="7.123279"><ele></ele><time>2013-7-31T9:21:33Z</time></trkpt>
<trkpt lat="46.769525" lon="7.123513"><ele></ele><time>2013-7-31T9:21:36Z</time></trkpt>
<trkpt lat="46.769404" lon="7.123823"><ele></ele><time>2013-7-31T9:21:39Z</time></trkpt>
<trkpt lat="46.769363" lon="7.124049"><ele></ele><time>2013-7-31T9:21:42Z</time></trkpt>
<trkpt lat="46.769336" lon="7.124399"><ele></ele><time>2013-7-31T9:21:45Z</time></trkpt>
<trkpt lat="46.769322" lon="7.124587"><ele></ele><time>2013-7-31T9:21:48Z</time></trkpt>
<trkpt lat="46.769318" lon="7.124992"><ele></ele><time>2013-7-31T9:21:51Z</time></trkpt>
<trkpt lat="46.769322" lon="7.125289"><ele></ele><time>2013-7-31T9:21:54Z</time></trkpt>
<trkpt lat="46.769315" lon="7.12554"><ele></ele><time>2013-7-31T9:21:57Z</time></trkpt>
<trkpt lat="46.769295" lon="7.125723"><ele></ele><time>2013-7-31T9:22:0Z</time></trkpt>
<trkpt lat="46.769298" lon="7.125959"><ele></ele><time>2013-7-31T9:22:3Z</time></trkpt>
<trkpt lat="46.769303" lon="7.126252"><ele></ele><time>2013-7-31T9:22:6Z</time></trkpt>
<trkpt lat="46.769349" lon="7.126622"><ele></ele><time>2013-7-31T9:22:9Z</time></trkpt>
<trkpt lat="46.769392" lon="7.12678"><ele></ele><time>2013-7-31T9:22:12Z</time></trkpt>
<trkpt lat="46.769365" lon="7.126911"><ele></ele><time>2013-7-31T9:22:15Z</time></trkpt>
<trkpt lat="46.769358" lon="7.127077"><ele></ele><time>2013-7-31T9:22:18Z</time></trkpt>
<trkpt lat="46.769399" lon="7.127199"><ele></ele><time>2013-7-31T9:22:21Z</time></trkpt>
<trkpt lat="46.769459" lon="7.127323"><ele></ele><time>2013-7-31T9:22:24Z</time></trkpt>
<trkpt lat="46.769554" lon="7.12733"><ele></ele><time>2013-7-31T9:22:27Z</time></trkpt>
<trkpt lat="46.769651" lon="7.127359"><ele></ele><time>2013-7-31T9:22:30Z</time></trkpt>
<trkpt lat="46.769765" lon="7.127487"><ele></ele><time>2013-7-31T9:22:33Z</time></trkpt>
<trkpt lat="46.769915" lon="7.127622"><ele></ele><time>2013-7-31T9:22:36Z</time></trkpt>
<trkpt lat="46.770108" lon="7.127771"><ele></ele><time>2013-7-31T9:22:39Z</time></trkpt>
<trkpt lat="46.77025" lon="7.127855"><ele></ele><time>2013-7-31T9:22:42Z</time></trkpt>
<trkpt lat="46.770339" lon="7.127808"><ele></ele><time>2013-7-31T9:22:45Z</time></trkpt>
<trkpt lat="46.770447" lon="7.12777"><ele></ele><time>2013-7-31T9:22:48Z</time></trkpt>
<trkpt lat="46.770532" lon="7.12772"><ele></ele><time>2013-7-31T9:22:51Z</time></trkpt>
<trkpt lat="46.770644" lon="7.12766"><ele></ele><time>2013-7-31T9:22:54Z</time></trkpt>
<trkpt lat="46.770751" lon="7.127563"><ele></ele><time>2013-7-31T9:22:57Z</time></trkpt>
<trkpt lat="46.77087" lon="7.127497"><ele></ele><time>2013-7-31T9:23:0Z</time></trkpt>
<trkpt lat="46.770961" lon="7.127451"><ele></ele><time>2013-7-31T9:23:3Z</time></trkpt>
<trkpt lat="46.771117" lon="7.127436"><ele></ele><time>2013-7-31T9:23:6Z</time></trkpt>
<trkpt lat="46.771407" lon="7.127182"><ele></ele><time>2013-7-31T9:23:9Z</time></trkpt>
<trkpt lat="46.771556" lon="7.126991"><ele></ele><time>2013-7-31T9:23:12Z</time></trkpt>
<trkpt lat="46.771651" lon="7.126791"><ele></ele><time>2013-7-31T9:23:15Z</time></trkpt>
<trkpt lat="46.771818" lon="7.126808"><ele></ele><time>2013-7-31T9:23:18Z</time></trkpt>
<trkpt lat="46.771929" lon="7.126763"><ele></ele><time>2013-7-31T9:23:21Z</time></trkpt>
<trkpt lat="46.771932" lon="7.126544"><ele></ele><time>2013-7-31T9:23:24Z</time></trkpt>
<trkpt lat="46.771928" lon="7.126314"><ele></ele><time>2013-7-31T9:23:27Z</time></trkpt>
<trkpt lat="46.771886" lon="7.125835"><ele></ele><time>2013-7-31T9:23:30Z</time></trkpt>
<trkpt lat="46.771905" lon="7.125605"><ele></ele><time>2013-7-31T9:23:33Z</time></trkpt>
<trkpt lat="46.771991" lon="7.125487"><ele></ele><time>2013-7-31T9:23:36Z</time></trkpt>
<trkpt lat="46.772097" lon="7.125366"><ele></ele><time>2013-7-31T9:23:39Z</time></trkpt>
<trkpt lat="46.772098" lon="7.125143"><ele></ele><time>2013-7-31T9:23:42Z</time></trkpt>
<trkpt lat="46.772203" lon="7.124881"><ele></ele><time>2013-7-31T9:23:45Z</time></trkpt>
<trkpt lat="46.772232" lon="7.124516"><ele></ele><time>2013-7-31T9:23:48Z</time></trkpt>
<trkpt lat="46.772264" lon="7.124253"><ele></ele><time>2013-7-31T9:23:51Z</time></trkpt>
<trkpt lat="46.77238" lon="7.124022"><ele></ele><time>2013-7-31T9:23:54Z</time></trkpt>
<trkpt lat="46.772466" lon="7.123758"><ele></ele><time>2013-7-31T9:23:57Z</time></trkpt>
<trkpt lat="46.772568" lon="7.123544"><ele></ele><time>2013-7-31T9:24:0Z</time></trkpt>
<trkpt lat="46.772707" lon="7.123351"><ele></ele><time>2013-7-31T9:24:3Z</time></trkpt>
<trkpt lat="46.772882" lon="7.123171"><ele></ele><time>2013-7-31T9:24:6Z</time></trkpt>
<trkpt lat="46.77307" lon="7.123031"><ele></ele><time>2013-7-31T9:24:9Z</time></trkpt>
<trkpt lat="46.773225" lon="7.122846"><ele></ele><time>2013-7-31T9:24:12Z</time></trkpt>
<trkpt lat="46.773368" lon="7.122584"><ele></ele><time>2013-7-31T9:24:15Z</time></trkpt>
<trkpt lat="46.773551" lon="7.122444"><ele></ele><time>2013-7-31T9:24:18Z</time></trkpt>
<trkpt lat="46.773718" lon="7.122264"><ele></ele><time>2013-7-31T9:24:21Z</time></trkpt>
<trkpt lat="46.773827" lon="7.122158"><ele></ele><time>2013-7-31T9:24:24Z</time></trkpt>
<trkpt lat="46.773927" lon="7.122091"><ele></ele><time>2013-7-31T9:24:27Z</time></trkpt>
<trkpt lat="46.774044" lon="7.121983"><ele></ele><time>2013-7-31T9:24:30Z</time></trkpt>
<trkpt lat="46.774217" lon="7.121877"><ele></ele><time>2013-7-31T9:24:33Z</time></trkpt>
<trkpt lat="46.774368" lon="7.121837"><ele></ele><time>2013-7-31T9:24:36Z</time></trkpt>
<trkpt lat="46.774518" lon="7.121766"><ele></ele><time>2013-7-31T9:24:39Z</time></trkpt>
<trkpt lat="46.77471" lon="7.12187"><ele></ele><time>2013-7-31T9:24:42Z</time></trkpt>
<trkpt lat="46.774789" lon="7.122047"><ele></ele><time>2013-7-31T9:24:45Z</time></trkpt>
<trkpt lat="46.774861" lon="7.122161"><ele></ele><time>2013-7-31T9:24:48Z</time></trkpt>
<trkpt lat="46.775001" lon="7.122194"><ele></ele><time>2013-7-31T9:24:51Z</time></trkpt>
<trkpt lat="46.775119" lon="7.122299"><ele></ele><time>2013-7-31T9:24:54Z</time></trkpt>
<trkpt lat="46.775239" lon="7.122417"><ele></ele><time>2013-7-31T9:24:57Z</time></trkpt>
<trkpt lat="46.7753" lon="7.122534"><ele></ele><time>2013-7-31T9:25:0Z</time></trkpt>
<trkpt lat="46.775321" lon="7.122664"><ele></ele><time>2013-7-31T9:25:3Z</time></trkpt>
<trkpt lat="46.775458" lon="7.122789"><ele></ele><time>2013-7-31T9:25:6Z</time></trkpt>
<trkpt lat="46.775649" lon="7.122869"><ele></ele><time>2013-7-31T9:25:9Z</time></trkpt>
<trkpt lat="46.775754" lon="7.122992"><ele></ele><time>2013-7-31T9:25:12Z</time></trkpt>
<trkpt lat="46.775846" lon="7.123193"><ele></ele><time>2013-7-31T9:25:15Z</time></trkpt>
<trkpt lat="46.776005" lon="7.123236"><ele></ele><time>2013-7-31T9:25:18Z</time></trkpt>
<trkpt lat="46.776111" lon="7.123314"><ele></ele><time>2013-7-31T9:25:21Z</time></trkpt>
<trkpt lat="46.776246" lon="7.123455"><ele></ele><time>2013-7-31T9:25:24Z</time></trkpt>
<trkpt lat="46.776501" lon="7.123574"><ele></ele><time>2013-7-31T9:25:27Z</time></trkpt>
<trkpt lat="46.776681" lon="7.123681"><ele></ele><time>2013-7-31T9:25:30Z</time></trkpt>
<trkpt lat="46.776797" lon="7.123789"><ele></ele><time>2013-7-31T9:25:33Z</time></trkpt>
<trkpt lat="46.776932" lon="7.123868"><ele></ele><time>2013-7-31T9:25:36Z</time></trkpt>
<trkpt lat="46.777074" lon="7.124011"><ele></ele><time>2013-7-31T9:25:39Z</time></trkpt>
<trkpt lat="46.777179" lon="7.124163"><ele></ele><time>2013-7-31T9:25:42Z</time></trkpt>
<trkpt lat="46.777286" lon="7.124266"><ele></ele><time>2013-7-31T9:25:45Z</time></trkpt>
<trkpt lat="46.777473" lon="7.124387"><ele></ele><time>2013-7-31T9:25:48Z</time></trkpt>
<trkpt lat="46.777624" lon="7.124498"><ele></ele><time>2013-7-31T9:25:51Z</time></trkpt>
<trkpt lat="46.777676" lon="7.124645"><ele></ele><time>2013-7-31T9:25:54Z</time></trkpt>
<trkpt lat="46.777812" lon="7.124794"><ele></ele><time>2013-7-31T9:25:57Z</time></trkpt>
<trkpt lat="46.777947" lon="7.124911"><ele></ele><time>2013-7-31T9:26:0Z</time></trkpt>
<trkpt lat="46.778086" lon="7.125094"><ele></ele><time>2013-7-31T9:26:3Z</time></trkpt>
<trkpt lat="46.778224" lon="7.125261"><ele></ele><time>2013-7-31T9:26:6Z</time></trkpt>
<trkpt lat="46.778342" lon="7.125406"><ele></ele><time>2013-7-31T9:26:9Z</time></trkpt>
<trkpt lat="46.778458" lon="7.125501"><ele></ele><time>2013-7-31T9:26:12Z</time></trkpt>
<trkpt lat="46.778512" lon="7.125633"><ele></ele><time>2013-7-31T9:26:15Z</time></trkpt>
<trkpt lat="46.778545" lon="7.125828"><ele></ele><time>2013-7-31T9:26:18Z</time></trkpt>
<trkpt lat="46.77863" lon="7.12599"><ele></ele><time>2013-7-31T9:26:21Z</time></trkpt>
<trkpt lat="46.778692" lon="7.126102"><ele></ele><time>2013-7-31T9:26:24Z</time></trkpt>
<trkpt lat="46.778766" lon="7.126216"><ele></ele><time>2013-7-31T9:26:27Z</time></trkpt>
<trkpt lat="46.778874" lon="7.126338"><ele></ele><time>2013-7-31T9:26:30Z</time></trkpt>
<trkpt lat="46.778962" lon="7.126386"><ele></ele><time>2013-7-31T9:26:33Z</time></trkpt>
<trkpt lat="46.779092" lon="7.126556"><ele></ele><time>2013-7-31T9:26:36Z</time></trkpt>
<trkpt lat="46.779174" lon="7.126719"><ele></ele><time>2013-7-31T9:26:39Z</time></trkpt>
<trkpt lat="46.779299" lon="7.126886"><ele></ele><time>2013-7-31T9:26:42Z</time></trkpt>
<trkpt lat="46.779403" lon="7.126984"><ele></ele><time>2013-7-31T9:26:45Z</time></trkpt>
<trkpt lat="46.779481" lon="7.127106"><ele></ele><time>2013-7-31T9:26:48Z</time></trkpt>
<trkpt lat="46.779498" lon="7.12729"><ele></ele><time>2013-7-31T9:26:51Z</time></trkpt>
<trkpt lat="46.779446" lon="7.127473"><ele></ele><time>2013-7-31T9:26:54Z</time></trkpt>
<trkpt lat="46.779372" lon="7.127616"><ele></ele><time>2013-7-31T9:26:57Z</time></trkpt>
<trkpt lat="46.779259" lon="7.127788"><ele></ele><time>2013-7-31T9:27:0Z</time></trkpt>
<trkpt lat="46.779146" lon="7.127928"><ele></ele><time>2013-7-31T9:27:3Z</time></trkpt>
<trkpt lat="46.779066" lon="7.128088"><ele></ele><time>2013-7-31T9:27:6Z</time></trkpt>
<trkpt lat="46.779067" lon="7.128274"><ele></ele><time>2013-7-31T9:27:9Z</time></trkpt>
<trkpt lat="46.779084" lon="7.128444"><ele></ele><time>2013-7-31T9:27:12Z</time></trkpt>
<trkpt lat="46.779085" lon="7.128633"><ele></ele><time>2013-7-31T9:27:15Z</time></trkpt>
<trkpt lat="46.779141" lon="7.12899"><ele></ele><time>2013-7-31T9:27:18Z</time></trkpt>
<trkpt lat="46.779206" lon="7.129269"><ele></ele><time>2013-7-31T9:27:21Z</time></trkpt>
<trkpt lat="46.779272" lon="7.129523"><ele></ele><time>2013-7-31T9:27:24Z</time></trkpt>
<trkpt lat="46.779335" lon="7.129762"><ele></ele><time>2013-7-31T9:27:27Z</time></trkpt>
<trkpt lat="46.779397" lon="7.129936"><ele></ele><time>2013-7-31T9:27:30Z</time></trkpt>
<trkpt lat="46.779474" lon="7.1301"><ele></ele><time>2013-7-31T9:27:33Z</time></trkpt>
<trkpt lat="46.779495" lon="7.130277"><ele></ele><time>2013-7-31T9:27:36Z</time></trkpt>
<trkpt lat="46.77958" lon="7.130394"><ele></ele><time>2013-7-31T9:27:39Z</time></trkpt>
<trkpt lat="46.779635" lon="7.13062"><ele></ele><time>2013-7-31T9:27:42Z</time></trkpt>
<trkpt lat="46.779678" lon="7.130801"><ele></ele><time>2013-7-31T9:27:45Z</time></trkpt>
<trkpt lat="46.77971" lon="7.130964"><ele></ele><time>2013-7-31T9:27:48Z</time></trkpt>
<trkpt lat="46.779704" lon="7.131209"><ele></ele><time>2013-7-31T9:27:51Z</time></trkpt>
<trkpt lat="46.779707" lon="7.131366"><ele></ele><time>2013-7-31T9:27:54Z</time></trkpt>
<trkpt lat="46.779724" lon="7.131519"><ele></ele><time>2013-7-31T9:27:57Z</time></trkpt>
<trkpt lat="46.779792" lon="7.131668"><ele></ele><time>2013-7-31T9:28:0Z</time></trkpt>
<trkpt lat="46.779844" lon="7.131811"><ele></ele><time>2013-7-31T9:28:3Z</time></trkpt>
<trkpt lat="46.779871" lon="7.131945"><ele></ele><time>2013-7-31T9:28:6Z</time></trkpt>
<trkpt lat="46.779899" lon="7.132072"><ele></ele><time>2013-7-31T9:28:9Z</time></trkpt>
<trkpt lat="46.779921" lon="7.132204"><ele></ele><time>2013-7-31T9:28:12Z</time></trkpt>
<trkpt lat="46.779909" lon="7.132348"><ele></ele><time>2013-7-31T9:28:15Z</time></trkpt>
<trkpt lat="46.779968" lon="7.132589"><ele></ele><time>2013-7-31T9:28:18Z</time></trkpt>
<trkpt lat="46.779986" lon="7.132801"><ele></ele><time>2013-7-31T9:28:21Z</time></trkpt>
<trkpt lat="46.779976" lon="7.133001"><ele></ele><time>2013-7-31T9:28:24Z</time></trkpt>
<trkpt lat="46.78001" lon="7.13317"><ele></ele><time>2013-7-31T9:28:27Z</time></trkpt>
<trkpt lat="46.780064" lon="7.13341"><ele></ele><time>2013-7-31T9:28:30Z</time></trkpt>
<trkpt lat="46.780115" lon="7.133566"><ele></ele><time>2013-7-31T9:28:33Z</time></trkpt>
<trkpt lat="46.780155" lon="7.133686"><ele></ele><time>2013-7-31T9:28:36Z</time></trkpt>
<trkpt lat="46.780208" lon="7.133799"><ele></ele><time>2013-7-31T9:28:39Z</time></trkpt>
<trkpt lat="46.780253" lon="7.13392"><ele></ele><time>2013-7-31T9:28:42Z</time></trkpt>
<trkpt lat="46.780303" lon="7.134041"><ele></ele><time>2013-7-31T9:28:45Z</time></trkpt>
<trkpt lat="46.780341" lon="7.134164"><ele></ele><time>2013-7-31T9:28:48Z</time></trkpt>
<trkpt lat="46.780379" lon="7.134287"><ele></ele><time>2013-7-31T9:28:51Z</time></trkpt>
<trkpt lat="46.780425" lon="7.13441"><ele></ele><time>2013-7-31T9:28:54Z</time></trkpt>
<trkpt lat="46.780525" lon="7.134608"><ele></ele><time>2013-7-31T9:28:57Z</time></trkpt>
<trkpt lat="46.780567" lon="7.134787"><ele></ele><time>2013-7-31T9:29:0Z</time></trkpt>
<trkpt lat="46.780607" lon="7.135025"><ele></ele><time>2013-7-31T9:29:3Z</time></trkpt>
<trkpt lat="46.780713" lon="7.135202"><ele></ele><time>2013-7-31T9:29:6Z</time></trkpt>
<trkpt lat="46.780801" lon="7.135409"><ele></ele><time>2013-7-31T9:29:9Z</time></trkpt>
<trkpt lat="46.780874" lon="7.135604"><ele></ele><time>2013-7-31T9:29:12Z</time></trkpt>
<trkpt lat="46.780918" lon="7.135773"><ele></ele><time>2013-7-31T9:29:15Z</time></trkpt>
<trkpt lat="46.780991" lon="7.135978"><ele></ele><time>2013-7-31T9:29:18Z</time></trkpt>
<trkpt lat="46.78103" lon="7.136169"><ele></ele><time>2013-7-31T9:29:21Z</time></trkpt>
<trkpt lat="46.781062" lon="7.136303"><ele></ele><time>2013-7-31T9:29:24Z</time></trkpt>
<trkpt lat="46.781043" lon="7.136471"><ele></ele><time>2013-7-31T9:29:27Z</time></trkpt>
<trkpt lat="46.781108" lon="7.136668"><ele></ele><time>2013-7-31T9:29:30Z</time></trkpt>
<trkpt lat="46.781124" lon="7.136889"><ele></ele><time>2013-7-31T9:29:33Z</time></trkpt>
<trkpt lat="46.781148" lon="7.137106"><ele></ele><time>2013-7-31T9:29:36Z</time></trkpt>
<trkpt lat="46.781157" lon="7.137279"><ele></ele><time>2013-7-31T9:29:39Z</time></trkpt>
<trkpt lat="46.781176" lon="7.137434"><ele></ele><time>2013-7-31T9:29:42Z</time></trkpt>
<trkpt lat="46.781201" lon="7.13761"><ele></ele><time>2013-7-31T9:29:45Z</time></trkpt>
<trkpt lat="46.78123" lon="7.13774"><ele></ele><time>2013-7-31T9:29:48Z</time></trkpt>
<trkpt lat="46.781287" lon="7.137964"><ele></ele><time>2013-7-31T9:29:51Z</time></trkpt>
<trkpt lat="46.781341" lon="7.138147"><ele></ele><time>2013-7-31T9:29:54Z</time></trkpt>
<trkpt lat="46.781408" lon="7.138332"><ele></ele><time>2013-7-31T9:29:57Z</time></trkpt>
<trkpt lat="46.781486" lon="7.138517"><ele></ele><time>2013-7-31T9:30:0Z</time></trkpt>
<trkpt lat="46.781572" lon="7.138702"><ele></ele><time>2013-7-31T9:30:3Z</time></trkpt>
<trkpt lat="46.781636" lon="7.138839"><ele></ele><time>2013-7-31T9:30:6Z</time></trkpt>
<trkpt lat="46.781722" lon="7.139034"><ele></ele><time>2013-7-31T9:30:9Z</time></trkpt>
<trkpt lat="46.781826" lon="7.139325"><ele></ele><time>2013-7-31T9:30:12Z</time></trkpt>
<trkpt lat="46.781864" lon="7.139511"><ele></ele><time>2013-7-31T9:30:15Z</time></trkpt>
<trkpt lat="46.78189" lon="7.139827"><ele></ele><time>2013-7-31T9:30:18Z</time></trkpt>
<trkpt lat="46.781883" lon="7.140078"><ele></ele><time>2013-7-31T9:30:21Z</time></trkpt>
<trkpt lat="46.781856" lon="7.140325"><ele></ele><time>2013-7-31T9:30:24Z</time></trkpt>
<trkpt lat="46.781808" lon="7.140565"><ele></ele><time>2013-7-31T9:30:27Z</time></trkpt>
<trkpt lat="46.781738" lon="7.140786"><ele></ele><time>2013-7-31T9:30:30Z</time></trkpt>
<trkpt lat="46.781642" lon="7.141005"><ele></ele><time>2013-7-31T9:30:33Z</time></trkpt>
<trkpt lat="46.781507" lon="7.14121"><ele></ele><time>2013-7-31T9:30:36Z</time></trkpt>
<trkpt lat="46.781378" lon="7.141398"><ele></ele><time>2013-7-31T9:30:39Z</time></trkpt>
<trkpt lat="46.781251" lon="7.141563"><ele></ele><time>2013-7-31T9:30:42Z</time></trkpt>
<trkpt lat="46.781117" lon="7.14176"><ele></ele><time>2013-7-31T9:30:45Z</time></trkpt>
<trkpt lat="46.780986" lon="7.141947"><ele></ele><time>2013-7-31T9:30:48Z</time></trkpt>
<trkpt lat="46.780858" lon="7.142154"><ele></ele><time>2013-7-31T9:30:51Z</time></trkpt>
<trkpt lat="46.780753" lon="7.14237"><ele></ele><time>2013-7-31T9:30:54Z</time></trkpt>
<trkpt lat="46.780639" lon="7.142613"><ele></ele><time>2013-7-31T9:30:57Z</time></trkpt>
<trkpt lat="46.780513" lon="7.142903"><ele></ele><time>2013-7-31T9:31:0Z</time></trkpt>
<trkpt lat="46.780417" lon="7.143127"><ele></ele><time>2013-7-31T9:31:3Z</time></trkpt>
<trkpt lat="46.780295" lon="7.143404"><ele></ele><time>2013-7-31T9:31:6Z</time></trkpt>
<trkpt lat="46.780164" lon="7.143687"><ele></ele><time>2013-7-31T9:31:9Z</time></trkpt>
<trkpt lat="46.779991" lon="7.144091"><ele></ele><time>2013-7-31T9:31:12Z</time></trkpt>
<trkpt lat="46.779867" lon="7.144418"><ele></ele><time>2013-7-31T9:31:15Z</time></trkpt>
<trkpt lat="46.779779" lon="7.144753"><ele></ele><time>2013-7-31T9:31:18Z</time></trkpt>
<trkpt lat="46.7797" lon="7.145096"><ele></ele><time>2013-7-31T9:31:21Z</time></trkpt>
<trkpt lat="46.779608" lon="7.14543"><ele></ele><time>2013-7-31T9:31:24Z</time></trkpt>
<trkpt lat="46.779531" lon="7.145801"><ele></ele><time>2013-7-31T9:31:27Z</time></trkpt>
<trkpt lat="46.779542" lon="7.146155"><ele></ele><time>2013-7-31T9:31:30Z</time></trkpt>
<trkpt lat="46.779594" lon="7.14649"><ele></ele><time>2013-7-31T9:31:33Z</time></trkpt>
<trkpt lat="46.77964" lon="7.146837"><ele></ele><time>2013-7-31T9:31:36Z</time></trkpt>
<trkpt lat="46.779694" lon="7.147176"><ele></ele><time>2013-7-31T9:31:39Z</time></trkpt>
<trkpt lat="46.779735" lon="7.147522"><ele></ele><time>2013-7-31T9:31:42Z</time></trkpt>
<trkpt lat="46.779757" lon="7.147846"><ele></ele><time>2013-7-31T9:31:45Z</time></trkpt>
<trkpt lat="46.779806" lon="7.148157"><ele></ele><time>2013-7-31T9:31:48Z</time></trkpt>
<trkpt lat="46.779844" lon="7.148468"><ele></ele><time>2013-7-31T9:31:51Z</time></trkpt>
<trkpt lat="46.779876" lon="7.148747"><ele></ele><time>2013-7-31T9:31:54Z</time></trkpt>
<trkpt lat="46.779902" lon="7.148953"><ele></ele><time>2013-7-31T9:31:57Z</time></trkpt>
<trkpt lat="46.779961" lon="7.149201"><ele></ele><time>2013-7-31T9:32:0Z</time></trkpt>
<trkpt lat="46.780067" lon="7.1494"><ele></ele><time>2013-7-31T9:32:3Z</time></trkpt>
<trkpt lat="46.780196" lon="7.149578"><ele></ele><time>2013-7-31T9:32:6Z</time></trkpt>
<trkpt lat="46.780345" lon="7.149806"><ele></ele><time>2013-7-31T9:32:9Z</time></trkpt>
<trkpt lat="46.780453" lon="7.149983"><ele></ele><time>2013-7-31T9:32:12Z</time></trkpt>
<trkpt lat="46.780552" lon="7.150148"><ele></ele><time>2013-7-31T9:32:15Z</time></trkpt>
<trkpt lat="46.780627" lon="7.15032"><ele></ele><time>2013-7-31T9:32:18Z</time></trkpt>
<trkpt lat="46.780638" lon="7.150517"><ele></ele><time>2013-7-31T9:32:21Z</time></trkpt>
<trkpt lat="46.780547" lon="7.150694"><ele></ele><time>2013-7-31T9:32:24Z</time></trkpt>
<trkpt lat="46.780413" lon="7.150859"><ele></ele><time>2013-7-31T9:32:27Z</time></trkpt>
<trkpt lat="46.780255" lon="7.151097"><ele></ele><time>2013-7-31T9:32:30Z</time></trkpt>
<trkpt lat="46.780126" lon="7.151375"><ele></ele><time>2013-7-31T9:32:33Z</time></trkpt>
<trkpt lat="46.779978" lon="7.151647"><ele></ele><time>2013-7-31T9:32:36Z</time></trkpt>
<trkpt lat="46.779857" lon="7.151933"><ele></ele><time>2013-7-31T9:32:39Z</time></trkpt>
<trkpt lat="46.779743" lon="7.152237"><ele></ele><time>2013-7-31T9:32:42Z</time></trkpt>
<trkpt lat="46.77961" lon="7.152566"><ele></ele><time>2013-7-31T9:32:45Z</time></trkpt>
<trkpt lat="46.779493" lon="7.15292"><ele></ele><time>2013-7-31T9:32:48Z</time></trkpt>
<trkpt lat="46.779372" lon="7.153274"><ele></ele><time>2013-7-31T9:32:51Z</time></trkpt>
<trkpt lat="46.779243" lon="7.15365"><ele></ele><time>2013-7-31T9:32:54Z</time></trkpt>
<trkpt lat="46.779114" lon="7.154019"><ele></ele><time>2013-7-31T9:32:57Z</time></trkpt>
<trkpt lat="46.778959" lon="7.154377"><ele></ele><time>2013-7-31T9:33:0Z</time></trkpt>
<trkpt lat="46.778873" lon="7.154664"><ele></ele><time>2013-7-31T9:33:3Z</time></trkpt>
<trkpt lat="46.778755" lon="7.155045"><ele></ele><time>2013-7-31T9:33:6Z</time></trkpt>
<trkpt lat="46.778637" lon="7.155431"><ele></ele><time>2013-7-31T9:33:9Z</time></trkpt>
<trkpt lat="46.778503" lon="7.155792"><ele></ele><time>2013-7-31T9:33:12Z</time></trkpt>
<trkpt lat="46.778374" lon="7.156171"><ele></ele><time>2013-7-31T9:33:15Z</time></trkpt>
<trkpt lat="46.778246" lon="7.156536"><ele></ele><time>2013-7-31T9:33:18Z</time></trkpt>
<trkpt lat="46.77809" lon="7.157019"><ele></ele><time>2013-7-31T9:33:21Z</time></trkpt>
<trkpt lat="46.777994" lon="7.157403"><ele></ele><time>2013-7-31T9:33:24Z</time></trkpt>
<trkpt lat="46.77786" lon="7.157768"><ele></ele><time>2013-7-31T9:33:27Z</time></trkpt>
<trkpt lat="46.777726" lon="7.158154"><ele></ele><time>2013-7-31T9:33:30Z</time></trkpt>
<trkpt lat="46.777589" lon="7.158546"><ele></ele><time>2013-7-31T9:33:33Z</time></trkpt>
<trkpt lat="46.777452" lon="7.158934"><ele></ele><time>2013-7-31T9:33:36Z</time></trkpt>
<trkpt lat="46.777334" lon="7.159325"><ele></ele><time>2013-7-31T9:33:39Z</time></trkpt>
<trkpt lat="46.777195" lon="7.159697"><ele></ele><time>2013-7-31T9:33:42Z</time></trkpt>
<trkpt lat="46.777022" lon="7.160023"><ele></ele><time>2013-7-31T9:33:45Z</time></trkpt>
<trkpt lat="46.776799" lon="7.160297"><ele></ele><time>2013-7-31T9:33:48Z</time></trkpt>
<trkpt lat="46.776524" lon="7.160479"><ele></ele><time>2013-7-31T9:33:51Z</time></trkpt>
<trkpt lat="46.776266" lon="7.16064"><ele></ele><time>2013-7-31T9:33:54Z</time></trkpt>
<trkpt lat="46.776" lon="7.160678"><ele></ele><time>2013-7-31T9:33:57Z</time></trkpt>
<trkpt lat="46.775727" lon="7.160652"><ele></ele><time>2013-7-31T9:34:0Z</time></trkpt>
<trkpt lat="46.77545" lon="7.160638"><ele></ele><time>2013-7-31T9:34:3Z</time></trkpt>
<trkpt lat="46.775166" lon="7.160672"><ele></ele><time>2013-7-31T9:34:6Z</time></trkpt>
<trkpt lat="46.774962" lon="7.160751"><ele></ele><time>2013-7-31T9:34:9Z</time></trkpt>
<trkpt lat="46.774693" lon="7.16094"><ele></ele><time>2013-7-31T9:34:12Z</time></trkpt>
<trkpt lat="46.774426" lon="7.161128"><ele></ele><time>2013-7-31T9:34:15Z</time></trkpt>
<trkpt lat="46.774131" lon="7.161321"><ele></ele><time>2013-7-31T9:34:18Z</time></trkpt>
<trkpt lat="46.773755" lon="7.161579"><ele></ele><time>2013-7-31T9:34:21Z</time></trkpt>
<trkpt lat="46.773451" lon="7.16178"><ele></ele><time>2013-7-31T9:34:24Z</time></trkpt>
<trkpt lat="46.773138" lon="7.161984"><ele></ele><time>2013-7-31T9:34:27Z</time></trkpt>
<trkpt lat="46.772813" lon="7.162086"><ele></ele><time>2013-7-31T9:34:30Z</time></trkpt>
<trkpt lat="46.772463" lon="7.162099"><ele></ele><time>2013-7-31T9:34:33Z</time></trkpt>
<trkpt lat="46.772125" lon="7.161986"><ele></ele><time>2013-7-31T9:34:36Z</time></trkpt>
<trkpt lat="46.771875" lon="7.161764"><ele></ele><time>2013-7-31T9:34:39Z</time></trkpt>
<trkpt lat="46.771709" lon="7.1615"><ele></ele><time>2013-7-31T9:34:42Z</time></trkpt>
<trkpt lat="46.771606" lon="7.161707"><ele></ele><time>2013-7-31T9:34:45Z</time></trkpt>
<trkpt lat="46.77157" lon="7.16203"><ele></ele><time>2013-7-31T9:34:48Z</time></trkpt>
<trkpt lat="46.771406" lon="7.162254"><ele></ele><time>2013-7-31T9:34:51Z</time></trkpt>
<trkpt lat="46.771235" lon="7.162408"><ele></ele><time>2013-7-31T9:34:54Z</time></trkpt>
<trkpt lat="46.771089" lon="7.162453"><ele></ele><time>2013-7-31T9:34:57Z</time></trkpt>
<trkpt lat="46.770948" lon="7.162395"><ele></ele><time>2013-7-31T9:35:0Z</time></trkpt>
<trkpt lat="46.77084" lon="7.162295"><ele></ele><time>2013-7-31T9:35:3Z</time></trkpt>
<trkpt lat="46.770734" lon="7.162203"><ele></ele><time>2013-7-31T9:35:6Z</time></trkpt>
<trkpt lat="46.770671" lon="7.162072"><ele></ele><time>2013-7-31T9:35:9Z</time></trkpt>
<trkpt lat="46.770666" lon="7.161933"><ele></ele><time>2013-7-31T9:35:12Z</time></trkpt>
<trkpt lat="46.770698" lon="7.162072"><ele></ele><time>2013-7-31T9:35:15Z</time></trkpt>
<trkpt lat="46.770839" lon="7.162359"><ele></ele><time>2013-7-31T9:35:18Z</time></trkpt>
<trkpt lat="46.770932" lon="7.162453"><ele></ele><time>2013-7-31T9:35:21Z</time></trkpt>
<trkpt lat="46.771106" lon="7.162522"><ele></ele><time>2013-7-31T9:35:24Z</time></trkpt>
<trkpt lat="46.77125" lon="7.162459"><ele></ele><time>2013-7-31T9:35:27Z</time></trkpt>
<trkpt lat="46.771449" lon="7.162292"><ele></ele><time>2013-7-31T9:35:30Z</time></trkpt>
<trkpt lat="46.771616" lon="7.162166"><ele></ele><time>2013-7-31T9:35:33Z</time></trkpt>
<trkpt lat="46.771708" lon="7.16204"><ele></ele><time>2013-7-31T9:35:36Z</time></trkpt>
<trkpt lat="46.771842" lon="7.161943"><ele></ele><time>2013-7-31T9:35:39Z</time></trkpt>
<trkpt lat="46.772001" lon="7.161976"><ele></ele><time>2013-7-31T9:35:42Z</time></trkpt>
<trkpt lat="46.772205" lon="7.162045"><ele></ele><time>2013-7-31T9:35:45Z</time></trkpt>
<trkpt lat="46.772372" lon="7.162118"><ele></ele><time>2013-7-31T9:35:48Z</time></trkpt>
<trkpt lat="46.772569" lon="7.16216"><ele></ele><time>2013-7-31T9:35:51Z</time></trkpt>
<trkpt lat="46.772777" lon="7.162154"><ele></ele><time>2013-7-31T9:35:54Z</time></trkpt>
<trkpt lat="46.772998" lon="7.162135"><ele></ele><time>2013-7-31T9:35:57Z</time></trkpt>
<trkpt lat="46.773202" lon="7.162034"><ele></ele><time>2013-7-31T9:36:0Z</time></trkpt>
<trkpt lat="46.773401" lon="7.161922"><ele></ele><time>2013-7-31T9:36:3Z</time></trkpt>
<trkpt lat="46.773595" lon="7.161788"><ele></ele><time>2013-7-31T9:36:6Z</time></trkpt>
<trkpt lat="46.773772" lon="7.161633"><ele></ele><time>2013-7-31T9:36:9Z</time></trkpt>
<trkpt lat="46.773952" lon="7.161501"><ele></ele><time>2013-7-31T9:36:12Z</time></trkpt>
<trkpt lat="46.774142" lon="7.161385"><ele></ele><time>2013-7-31T9:36:15Z</time></trkpt>
<trkpt lat="46.77433" lon="7.161251"><ele></ele><time>2013-7-31T9:36:18Z</time></trkpt>
<trkpt lat="46.774529" lon="7.161097"><ele></ele><time>2013-7-31T9:36:21Z</time></trkpt>
<trkpt lat="46.774733" lon="7.160957"><ele></ele><time>2013-7-31T9:36:24Z</time></trkpt>
<trkpt lat="46.7751" lon="7.160792"><ele></ele><time>2013-7-31T9:36:27Z</time></trkpt>
<trkpt lat="46.775285" lon="7.160673"><ele></ele><time>2013-7-31T9:36:30Z</time></trkpt>
<trkpt lat="46.775475" lon="7.160659"><ele></ele><time>2013-7-31T9:36:33Z</time></trkpt>
<trkpt lat="46.775675" lon="7.160715"><ele></ele><time>2013-7-31T9:36:36Z</time></trkpt>
<trkpt lat="46.775932" lon="7.160767"><ele></ele><time>2013-7-31T9:36:39Z</time></trkpt>
<trkpt lat="46.776144" lon="7.160782"><ele></ele><time>2013-7-31T9:36:42Z</time></trkpt>
<trkpt lat="46.776368" lon="7.160761"><ele></ele><time>2013-7-31T9:36:45Z</time></trkpt>
<trkpt lat="46.776656" lon="7.160654"><ele></ele><time>2013-7-31T9:36:48Z</time></trkpt>
<trkpt lat="46.776851" lon="7.160441"><ele></ele><time>2013-7-31T9:36:51Z</time></trkpt>
<trkpt lat="46.777037" lon="7.160212"><ele></ele><time>2013-7-31T9:36:54Z</time></trkpt>
<trkpt lat="46.7772" lon="7.159937"><ele></ele><time>2013-7-31T9:36:57Z</time></trkpt>
<trkpt lat="46.777323" lon="7.159621"><ele></ele><time>2013-7-31T9:37:0Z</time></trkpt>
<trkpt lat="46.777418" lon="7.159286"><ele></ele><time>2013-7-31T9:37:3Z</time></trkpt>
<trkpt lat="46.77752" lon="7.158939"><ele></ele><time>2013-7-31T9:37:6Z</time></trkpt>
<trkpt lat="46.777626" lon="7.158616"><ele></ele><time>2013-7-31T9:37:9Z</time></trkpt>
<trkpt lat="46.777747" lon="7.158285"><ele></ele><time>2013-7-31T9:37:12Z</time></trkpt>
<trkpt lat="46.77787" lon="7.157958"><ele></ele><time>2013-7-31T9:37:15Z</time></trkpt>
<trkpt lat="46.777989" lon="7.157625"><ele></ele><time>2013-7-31T9:37:18Z</time></trkpt>
<trkpt lat="46.778099" lon="7.157277"><ele></ele><time>2013-7-31T9:37:21Z</time></trkpt>
<trkpt lat="46.77821" lon="7.156958"><ele></ele><time>2013-7-31T9:37:24Z</time></trkpt>
<trkpt lat="46.778323" lon="7.156613"><ele></ele><time>2013-7-31T9:37:27Z</time></trkpt>
<trkpt lat="46.778439" lon="7.156252"><ele></ele><time>2013-7-31T9:37:30Z</time></trkpt>
<trkpt lat="46.778551" lon="7.155871"><ele></ele><time>2013-7-31T9:37:33Z</time></trkpt>
<trkpt lat="46.778669" lon="7.155527"><ele></ele><time>2013-7-31T9:37:36Z</time></trkpt>
<trkpt lat="46.778809" lon="7.155185"><ele></ele><time>2013-7-31T9:37:39Z</time></trkpt>
<trkpt lat="46.778904" lon="7.154916"><ele></ele><time>2013-7-31T9:37:42Z</time></trkpt>
<trkpt lat="46.779024" lon="7.154577"><ele></ele><time>2013-7-31T9:37:45Z</time></trkpt>
<trkpt lat="46.779147" lon="7.154228"><ele></ele><time>2013-7-31T9:37:48Z</time></trkpt>
<trkpt lat="46.779264" lon="7.15388"><ele></ele><time>2013-7-31T9:37:51Z</time></trkpt>
<trkpt lat="46.779401" lon="7.153449"><ele></ele><time>2013-7-31T9:37:54Z</time></trkpt>
<trkpt lat="46.779506" lon="7.153087"><ele></ele><time>2013-7-31T9:37:57Z</time></trkpt>
<trkpt lat="46.779618" lon="7.152736"><ele></ele><time>2013-7-31T9:38:0Z</time></trkpt>
<trkpt lat="46.779753" lon="7.152416"><ele></ele><time>2013-7-31T9:38:3Z</time></trkpt>
<trkpt lat="46.779878" lon="7.152075"><ele></ele><time>2013-7-31T9:38:6Z</time></trkpt>
<trkpt lat="46.780028" lon="7.151763"><ele></ele><time>2013-7-31T9:38:9Z</time></trkpt>
<trkpt lat="46.780196" lon="7.151488"><ele></ele><time>2013-7-31T9:38:12Z</time></trkpt>
<trkpt lat="46.780357" lon="7.151204"><ele></ele><time>2013-7-31T9:38:15Z</time></trkpt>
<trkpt lat="46.780522" lon="7.150938"><ele></ele><time>2013-7-31T9:38:18Z</time></trkpt>
<trkpt lat="46.780697" lon="7.150679"><ele></ele><time>2013-7-31T9:38:21Z</time></trkpt>
<trkpt lat="46.780889" lon="7.15044"><ele></ele><time>2013-7-31T9:38:24Z</time></trkpt>
<trkpt lat="46.78106" lon="7.150156"><ele></ele><time>2013-7-31T9:38:27Z</time></trkpt>
<trkpt lat="46.781191" lon="7.149931"><ele></ele><time>2013-7-31T9:38:30Z</time></trkpt>
<trkpt lat="46.781375" lon="7.149662"><ele></ele><time>2013-7-31T9:38:33Z</time></trkpt>
<trkpt lat="46.781575" lon="7.149404"><ele></ele><time>2013-7-31T9:38:36Z</time></trkpt>
<trkpt lat="46.781786" lon="7.149181"><ele></ele><time>2013-7-31T9:38:39Z</time></trkpt>
<trkpt lat="46.782045" lon="7.14891"><ele></ele><time>2013-7-31T9:38:42Z</time></trkpt>
<trkpt lat="46.782199" lon="7.148736"><ele></ele><time>2013-7-31T9:38:45Z</time></trkpt>
<trkpt lat="46.782475" lon="7.148523"><ele></ele><time>2013-7-31T9:38:48Z</time></trkpt>
<trkpt lat="46.782697" lon="7.148367"><ele></ele><time>2013-7-31T9:38:51Z</time></trkpt>
<trkpt lat="46.782936" lon="7.148231"><ele></ele><time>2013-7-31T9:38:54Z</time></trkpt>
<trkpt lat="46.783186" lon="7.148119"><ele></ele><time>2013-7-31T9:38:57Z</time></trkpt>
<trkpt lat="46.783454" lon="7.148044"><ele></ele><time>2013-7-31T9:39:0Z</time></trkpt>
<trkpt lat="46.783703" lon="7.147962"><ele></ele><time>2013-7-31T9:39:3Z</time></trkpt>
<trkpt lat="46.78396" lon="7.14793"><ele></ele><time>2013-7-31T9:39:6Z</time></trkpt>
<trkpt lat="46.784242" lon="7.147946"><ele></ele><time>2013-7-31T9:39:9Z</time></trkpt>
<trkpt lat="46.784549" lon="7.14798"><ele></ele><time>2013-7-31T9:39:12Z</time></trkpt>
<trkpt lat="46.784846" lon="7.148045"><ele></ele><time>2013-7-31T9:39:15Z</time></trkpt>
<trkpt lat="46.785143" lon="7.148179"><ele></ele><time>2013-7-31T9:39:18Z</time></trkpt>
<trkpt lat="46.785418" lon="7.148359"><ele></ele><time>2013-7-31T9:39:21Z</time></trkpt>
<trkpt lat="46.785672" lon="7.148616"><ele></ele><time>2013-7-31T9:39:24Z</time></trkpt>
<trkpt lat="46.785847" lon="7.148865"><ele></ele><time>2013-7-31T9:39:27Z</time></trkpt>
<trkpt lat="46.786035" lon="7.149251"><ele></ele><time>2013-7-31T9:39:30Z</time></trkpt>
<trkpt lat="46.786167" lon="7.149702"><ele></ele><time>2013-7-31T9:39:33Z</time></trkpt>
<trkpt lat="46.786222" lon="7.150203"><ele></ele><time>2013-7-31T9:39:36Z</time></trkpt>
<trkpt lat="46.786227" lon="7.150729"><ele></ele><time>2013-7-31T9:39:39Z</time></trkpt>
<trkpt lat="46.786212" lon="7.151422"><ele></ele><time>2013-7-31T9:39:42Z</time></trkpt>
<trkpt lat="46.78625" lon="7.151956"><ele></ele><time>2013-7-31T9:39:45Z</time></trkpt>
<trkpt lat="46.786358" lon="7.152346"><ele></ele><time>2013-7-31T9:39:48Z</time></trkpt>
<trkpt lat="46.78658" lon="7.152917"><ele></ele><time>2013-7-31T9:39:51Z</time></trkpt>
<trkpt lat="46.78677" lon="7.15334"><ele></ele><time>2013-7-31T9:39:54Z</time></trkpt>
<trkpt lat="46.786963" lon="7.153716"><ele></ele><time>2013-7-31T9:39:57Z</time></trkpt>
<trkpt lat="46.787167" lon="7.154058"><ele></ele><time>2013-7-31T9:40:0Z</time></trkpt>
<trkpt lat="46.787384" lon="7.154362"><ele></ele><time>2013-7-31T9:40:3Z</time></trkpt>
<trkpt lat="46.787615" lon="7.15465"><ele></ele><time>2013-7-31T9:40:6Z</time></trkpt>
<trkpt lat="46.787781" lon="7.154862"><ele></ele><time>2013-7-31T9:40:9Z</time></trkpt>
<trkpt lat="46.787983" lon="7.155122"><ele></ele><time>2013-7-31T9:40:12Z</time></trkpt>
<trkpt lat="46.788184" lon="7.155375"><ele></ele><time>2013-7-31T9:40:15Z</time></trkpt>
<trkpt lat="46.788381" lon="7.155622"><ele></ele><time>2013-7-31T9:40:18Z</time></trkpt>
<trkpt lat="46.788583" lon="7.155871"><ele></ele><time>2013-7-31T9:40:21Z</time></trkpt>
<trkpt lat="46.788778" lon="7.156102"><ele></ele><time>2013-7-31T9:40:24Z</time></trkpt>
<trkpt lat="46.789017" lon="7.156416"><ele></ele><time>2013-7-31T9:40:27Z</time></trkpt>
<trkpt lat="46.789204" lon="7.156653"><ele></ele><time>2013-7-31T9:40:30Z</time></trkpt>
<trkpt lat="46.789338" lon="7.156819"><ele></ele><time>2013-7-31T9:40:33Z</time></trkpt>
<trkpt lat="46.789558" lon="7.1571"><ele></ele><time>2013-7-31T9:40:36Z</time></trkpt>
<trkpt lat="46.789738" lon="7.157324"><ele></ele><time>2013-7-31T9:40:39Z</time></trkpt>
<trkpt lat="46.789912" lon="7.157559"><ele></ele><time>2013-7-31T9:40:42Z</time></trkpt>
<trkpt lat="46.79008" lon="7.157809"><ele></ele><time>2013-7-31T9:40:45Z</time></trkpt>
<trkpt lat="46.790222" lon="7.158092"><ele></ele><time>2013-7-31T9:40:48Z</time></trkpt>
<trkpt lat="46.790305" lon="7.158324"><ele></ele><time>2013-7-31T9:40:51Z</time></trkpt>
<trkpt lat="46.790419" lon="7.158694"><ele></ele><time>2013-7-31T9:40:54Z</time></trkpt>
<trkpt lat="46.790484" lon="7.158966"><ele></ele><time>2013-7-31T9:40:57Z</time></trkpt>
<trkpt lat="46.790533" lon="7.159233"><ele></ele><time>2013-7-31T9:41:0Z</time></trkpt>
<trkpt lat="46.790574" lon="7.159438"><ele></ele><time>2013-7-31T9:41:3Z</time></trkpt>
<trkpt lat="46.790643" lon="7.159701"><ele></ele><time>2013-7-31T9:41:6Z</time></trkpt>
<trkpt lat="46.790708" lon="7.159944"><ele></ele><time>2013-7-31T9:41:9Z</time></trkpt>
<trkpt lat="46.790798" lon="7.160151"><ele></ele><time>2013-7-31T9:41:12Z</time></trkpt>
<trkpt lat="46.790948" lon="7.160351"><ele></ele><time>2013-7-31T9:41:15Z</time></trkpt>
<trkpt lat="46.791027" lon="7.160451"><ele></ele><time>2013-7-31T9:41:18Z</time></trkpt>
<trkpt lat="46.79119" lon="7.160565"><ele></ele><time>2013-7-31T9:41:21Z</time></trkpt>
<trkpt lat="46.791311" lon="7.160606"><ele></ele><time>2013-7-31T9:41:24Z</time></trkpt>
<trkpt lat="46.791413" lon="7.160662"><ele></ele><time>2013-7-31T9:41:27Z</time></trkpt>
<trkpt lat="46.791364" lon="7.160798"><ele></ele><time>2013-7-31T9:41:30Z</time></trkpt>
<trkpt lat="46.791537" lon="7.16082"><ele></ele><time>2013-7-31T9:41:33Z</time></trkpt>
<trkpt lat="46.791636" lon="7.160775"><ele></ele><time>2013-7-31T9:41:36Z</time></trkpt>
<trkpt lat="46.791732" lon="7.160726"><ele></ele><time>2013-7-31T9:41:39Z</time></trkpt>
<trkpt lat="46.791877" lon="7.160532"><ele></ele><time>2013-7-31T9:41:42Z</time></trkpt>
<trkpt lat="46.791975" lon="7.160326"><ele></ele><time>2013-7-31T9:41:45Z</time></trkpt>
<trkpt lat="46.792177" lon="7.160178"><ele></ele><time>2013-7-31T9:41:48Z</time></trkpt>
<trkpt lat="46.792353" lon="7.16001"><ele></ele><time>2013-7-31T9:41:51Z</time></trkpt>
<trkpt lat="46.792533" lon="7.159834"><ele></ele><time>2013-7-31T9:41:54Z</time></trkpt>
<trkpt lat="46.792756" lon="7.159586"><ele></ele><time>2013-7-31T9:41:57Z</time></trkpt>
<trkpt lat="46.792943" lon="7.159401"><ele></ele><time>2013-7-31T9:42:0Z</time></trkpt>
<trkpt lat="46.793126" lon="7.159202"><ele></ele><time>2013-7-31T9:42:3Z</time></trkpt>
<trkpt lat="46.793314" lon="7.158982"><ele></ele><time>2013-7-31T9:42:6Z</time></trkpt>
<trkpt lat="46.793448" lon="7.158832"><ele></ele><time>2013-7-31T9:42:9Z</time></trkpt>
<trkpt lat="46.793686" lon="7.158584"><ele></ele><time>2013-7-31T9:42:12Z</time></trkpt>
<trkpt lat="46.79387" lon="7.158372"><ele></ele><time>2013-7-31T9:42:15Z</time></trkpt>
<trkpt lat="46.794044" lon="7.158172"><ele></ele><time>2013-7-31T9:42:18Z</time></trkpt>
<trkpt lat="46.794202" lon="7.157886"><ele></ele><time>2013-7-31T9:42:21Z</time></trkpt>
<trkpt lat="46.794283" lon="7.157525"><ele></ele><time>2013-7-31T9:42:24Z</time></trkpt>
<trkpt lat="46.794306" lon="7.157093"><ele></ele><time>2013-7-31T9:42:27Z</time></trkpt>
<trkpt lat="46.794332" lon="7.156684"><ele></ele><time>2013-7-31T9:42:30Z</time></trkpt>
<trkpt lat="46.794369" lon="7.156238"><ele></ele><time>2013-7-31T9:42:33Z</time></trkpt>
<trkpt lat="46.794396" lon="7.155906"><ele></ele><time>2013-7-31T9:42:36Z</time></trkpt>
<trkpt lat="46.794492" lon="7.155494"><ele></ele><time>2013-7-31T9:42:39Z</time></trkpt>
<trkpt lat="46.794569" lon="7.155135"><ele></ele><time>2013-7-31T9:42:42Z</time></trkpt>
<trkpt lat="46.794614" lon="7.154918"><ele></ele><time>2013-7-31T9:42:45Z</time></trkpt>
<trkpt lat="46.794618" lon="7.154358"><ele></ele><time>2013-7-31T9:42:48Z</time></trkpt>
<trkpt lat="46.794677" lon="7.154047"><ele></ele><time>2013-7-31T9:42:51Z</time></trkpt>
<trkpt lat="46.794705" lon="7.153701"><ele></ele><time>2013-7-31T9:42:54Z</time></trkpt>
<trkpt lat="46.794753" lon="7.153389"><ele></ele><time>2013-7-31T9:42:57Z</time></trkpt>
<trkpt lat="46.794792" lon="7.15307"><ele></ele><time>2013-7-31T9:43:0Z</time></trkpt>
<trkpt lat="46.794811" lon="7.152751"><ele></ele><time>2013-7-31T9:43:3Z</time></trkpt>
<trkpt lat="46.794858" lon="7.152466"><ele></ele><time>2013-7-31T9:43:6Z</time></trkpt>
<trkpt lat="46.794886" lon="7.152145"><ele></ele><time>2013-7-31T9:43:9Z</time></trkpt>
<trkpt lat="46.794942" lon="7.151898"><ele></ele><time>2013-7-31T9:43:12Z</time></trkpt>
<trkpt lat="46.794993" lon="7.151638"><ele></ele><time>2013-7-31T9:43:15Z</time></trkpt>
<trkpt lat="46.795028" lon="7.151369"><ele></ele><time>2013-7-31T9:43:18Z</time></trkpt>
<trkpt lat="46.795049" lon="7.151104"><ele></ele><time>2013-7-31T9:43:21Z</time></trkpt>
<trkpt lat="46.795067" lon="7.150858"><ele></ele><time>2013-7-31T9:43:24Z</time></trkpt>
<trkpt lat="46.795101" lon="7.150356"><ele></ele><time>2013-7-31T9:43:27Z</time></trkpt>
<trkpt lat="46.795109" lon="7.150149"><ele></ele><time>2013-7-31T9:43:30Z</time></trkpt>
<trkpt lat="46.794993" lon="7.15002"><ele></ele><time>2013-7-31T9:43:33Z</time></trkpt>
<trkpt lat="46.794886" lon="7.149998"><ele></ele><time>2013-7-31T9:43:36Z</time></trkpt>
<trkpt lat="46.794811" lon="7.150088"><ele></ele><time>2013-7-31T9:43:39Z</time></trkpt>
<trkpt lat="46.794825" lon="7.150235"><ele></ele><time>2013-7-31T9:43:42Z</time></trkpt>
<trkpt lat="46.794918" lon="7.15028"><ele></ele><time>2013-7-31T9:43:45Z</time></trkpt>
<trkpt lat="46.794988" lon="7.150446"><ele></ele><time>2013-7-31T9:43:48Z</time></trkpt>
<trkpt lat="46.794959" lon="7.150244"><ele></ele><time>2013-7-31T9:43:51Z</time></trkpt>
<trkpt lat="46.79505" lon="7.150173"><ele></ele><time>2013-7-31T9:43:54Z</time></trkpt>
<trkpt lat="46.795165" lon="7.14998"><ele></ele><time>2013-7-31T9:43:57Z</time></trkpt>
<trkpt lat="46.795197" lon="7.149712"><ele></ele><time>2013-7-31T9:44:0Z</time></trkpt>
<trkpt lat="46.795251" lon="7.149394"><ele></ele><time>2013-7-31T9:44:3Z</time></trkpt>
<trkpt lat="46.795287" lon="7.149132"><ele></ele><time>2013-7-31T9:44:6Z</time></trkpt>
<trkpt lat="46.795331" lon="7.148857"><ele></ele><time>2013-7-31T9:44:9Z</time></trkpt>
<trkpt lat="46.795365" lon="7.148628"><ele></ele><time>2013-7-31T9:44:12Z</time></trkpt>
<trkpt lat="46.795396" lon="7.148407"><ele></ele><time>2013-7-31T9:44:15Z</time></trkpt>
<trkpt lat="46.795408" lon="7.148237"><ele></ele><time>2013-7-31T9:44:18Z</time></trkpt>
<trkpt lat="46.795289" lon="7.148168"><ele></ele><time>2013-7-31T9:44:21Z</time></trkpt>
<trkpt lat="46.795023" lon="7.148075"><ele></ele><time>2013-7-31T9:44:24Z</time></trkpt>
<trkpt lat="46.794816" lon="7.148007"><ele></ele><time>2013-7-31T9:44:27Z</time></trkpt>
<trkpt lat="46.794537" lon="7.147872"><ele></ele><time>2013-7-31T9:44:30Z</time></trkpt>
<trkpt lat="46.794307" lon="7.147771"><ele></ele><time>2013-7-31T9:44:33Z</time></trkpt>
<trkpt lat="46.794071" lon="7.147655"><ele></ele><time>2013-7-31T9:44:36Z</time></trkpt>
<trkpt lat="46.793851" lon="7.147485"><ele></ele><time>2013-7-31T9:44:39Z</time></trkpt>
<trkpt lat="46.793607" lon="7.147291"><ele></ele><time>2013-7-31T9:44:42Z</time></trkpt>
<trkpt lat="46.793395" lon="7.147041"><ele></ele><time>2013-7-31T9:44:45Z</time></trkpt>
<trkpt lat="46.79315" lon="7.146781"><ele></ele><time>2013-7-31T9:44:48Z</time></trkpt>
<trkpt lat="46.792945" lon="7.146493"><ele></ele><time>2013-7-31T9:44:51Z</time></trkpt>
<trkpt lat="46.792778" lon="7.146253"><ele></ele><time>2013-7-31T9:44:54Z</time></trkpt>
<trkpt lat="46.792633" lon="7.146061"><ele></ele><time>2013-7-31T9:44:57Z</time></trkpt>
<trkpt lat="46.792498" lon="7.145849"><ele></ele><time>2013-7-31T9:45:0Z</time></trkpt>
<trkpt lat="46.792391" lon="7.145567"><ele></ele><time>2013-7-31T9:45:3Z</time></trkpt>
<trkpt lat="46.792319" lon="7.145379"><ele></ele><time>2013-7-31T9:45:6Z</time></trkpt>
<trkpt lat="46.79222" lon="7.145078"><ele></ele><time>2013-7-31T9:45:9Z</time></trkpt>
<trkpt lat="46.792198" lon="7.144874"><ele></ele><time>2013-7-31T9:45:12Z</time></trkpt>
<trkpt lat="46.792188" lon="7.144702"><ele></ele><time>2013-7-31T9:45:15Z</time></trkpt>
<trkpt lat="46.79218" lon="7.144551"><ele></ele><time>2013-7-31T9:45:18Z</time></trkpt>
<trkpt lat="46.792168" lon="7.144375"><ele></ele><time>2013-7-31T9:45:21Z</time></trkpt>
<trkpt lat="46.792198" lon="7.144166"><ele></ele><time>2013-7-31T9:45:24Z</time></trkpt>
<trkpt lat="46.79227" lon="7.143973"><ele></ele><time>2013-7-31T9:45:27Z</time></trkpt>
<trkpt lat="46.792208" lon="7.143781"><ele></ele><time>2013-7-31T9:45:30Z</time></trkpt>
<trkpt lat="46.792174" lon="7.143651"><ele></ele><time>2013-7-31T9:45:33Z</time></trkpt>
<trkpt lat="46.792133" lon="7.143404"><ele></ele><time>2013-7-31T9:45:36Z</time></trkpt>
<trkpt lat="46.792115" lon="7.14318"><ele></ele><time>2013-7-31T9:45:39Z</time></trkpt>
<trkpt lat="46.791925" lon="7.142985"><ele></ele><time>2013-7-31T9:45:42Z</time></trkpt>
<trkpt lat="46.791612" lon="7.142602"><ele></ele><time>2013-7-31T9:45:45Z</time></trkpt>
<trkpt lat="46.791467" lon="7.142312"><ele></ele><time>2013-7-31T9:45:48Z</time></trkpt>
<trkpt lat="46.791324" lon="7.141999"><ele></ele><time>2013-7-31T9:45:51Z</time></trkpt>
<trkpt lat="46.791209" lon="7.141626"><ele></ele><time>2013-7-31T9:45:54Z</time></trkpt>
<trkpt lat="46.791098" lon="7.14121"><ele></ele><time>2013-7-31T9:45:57Z</time></trkpt>
<trkpt lat="46.791022" lon="7.140757"><ele></ele><time>2013-7-31T9:46:0Z</time></trkpt>
<trkpt lat="46.790916" lon="7.140319"><ele></ele><time>2013-7-31T9:46:3Z</time></trkpt>
<trkpt lat="46.79082" lon="7.139847"><ele></ele><time>2013-7-31T9:46:6Z</time></trkpt>
<trkpt lat="46.790731" lon="7.13925"><ele></ele><time>2013-7-31T9:46:9Z</time></trkpt>
<trkpt lat="46.790672" lon="7.138771"><ele></ele><time>2013-7-31T9:46:12Z</time></trkpt>
<trkpt lat="46.790561" lon="7.138297"><ele></ele><time>2013-7-31T9:46:15Z</time></trkpt>
<trkpt lat="46.790428" lon="7.13782"><ele></ele><time>2013-7-31T9:46:18Z</time></trkpt>
<trkpt lat="46.790294" lon="7.137329"><ele></ele><time>2013-7-31T9:46:21Z</time></trkpt>
<trkpt lat="46.790153" lon="7.136838"><ele></ele><time>2013-7-31T9:46:24Z</time></trkpt>
<trkpt lat="46.79005" lon="7.136354"><ele></ele><time>2013-7-31T9:46:27Z</time></trkpt>
<trkpt lat="46.789945" lon="7.135862"><ele></ele><time>2013-7-31T9:46:30Z</time></trkpt>
<trkpt lat="46.789833" lon="7.135357"><ele></ele><time>2013-7-31T9:46:33Z</time></trkpt>
<trkpt lat="46.789707" lon="7.134827"><ele></ele><time>2013-7-31T9:46:36Z</time></trkpt>
<trkpt lat="46.789598" lon="7.134278"><ele></ele><time>2013-7-31T9:46:39Z</time></trkpt>
<trkpt lat="46.789584" lon="7.133755"><ele></ele><time>2013-7-31T9:46:42Z</time></trkpt>
<trkpt lat="46.78959" lon="7.133292"><ele></ele><time>2013-7-31T9:46:45Z</time></trkpt>
<trkpt lat="46.789527" lon="7.132863"><ele></ele><time>2013-7-31T9:46:48Z</time></trkpt>
<trkpt lat="46.789463" lon="7.132562"><ele></ele><time>2013-7-31T9:46:51Z</time></trkpt>
<trkpt lat="46.789379" lon="7.132182"><ele></ele><time>2013-7-31T9:46:54Z</time></trkpt>
<trkpt lat="46.789318" lon="7.131768"><ele></ele><time>2013-7-31T9:46:57Z</time></trkpt>
<trkpt lat="46.78926" lon="7.131339"><ele></ele><time>2013-7-31T9:47:0Z</time></trkpt>
<trkpt lat="46.789179" lon="7.130815"><ele></ele><time>2013-7-31T9:47:3Z</time></trkpt>
<trkpt lat="46.789074" lon="7.13045"><ele></ele><time>2013-7-31T9:47:6Z</time></trkpt>
<trkpt lat="46.789002" lon="7.13012"><ele></ele><time>2013-7-31T9:47:9Z</time></trkpt>
<trkpt lat="46.788907" lon="7.129785"><ele></ele><time>2013-7-31T9:47:12Z</time></trkpt>
<trkpt lat="46.788824" lon="7.129456"><ele></ele><time>2013-7-31T9:47:15Z</time></trkpt>
<trkpt lat="46.788717" lon="7.129199"><ele></ele><time>2013-7-31T9:47:18Z</time></trkpt>
<trkpt lat="46.788607" lon="7.128961"><ele></ele><time>2013-7-31T9:47:21Z</time></trkpt>
<trkpt lat="46.788492" lon="7.128783"><ele></ele><time>2013-7-31T9:47:24Z</time></trkpt>
<trkpt lat="46.7884" lon="7.128657"><ele></ele><time>2013-7-31T9:47:27Z</time></trkpt>
<trkpt lat="46.78832" lon="7.128502"><ele></ele><time>2013-7-31T9:47:30Z</time></trkpt>
<trkpt lat="46.788244" lon="7.128325"><ele></ele><time>2013-7-31T9:47:33Z</time></trkpt>
<trkpt lat="46.788196" lon="7.128162"><ele></ele><time>2013-7-31T9:47:36Z</time></trkpt>
<trkpt lat="46.788129" lon="7.128044"><ele></ele><time>2013-7-31T9:47:39Z</time></trkpt>
<trkpt lat="46.78803" lon="7.127852"><ele></ele><time>2013-7-31T9:47:42Z</time></trkpt>
<trkpt lat="46.78795" lon="7.127675"><ele></ele><time>2013-7-31T9:47:45Z</time></trkpt>
<trkpt lat="46.787833" lon="7.127693"><ele></ele><time>2013-7-31T9:47:48Z</time></trkpt>
<trkpt lat="46.787719" lon="7.127638"><ele></ele><time>2013-7-31T9:47:51Z</time></trkpt>
<trkpt lat="46.78764" lon="7.127316"><ele></ele><time>2013-7-31T9:47:54Z</time></trkpt>
<trkpt lat="46.787545" lon="7.126892"><ele></ele><time>2013-7-31T9:47:57Z</time></trkpt>
<trkpt lat="46.787494" lon="7.126506"><ele></ele><time>2013-7-31T9:48:0Z</time></trkpt>
<trkpt lat="46.787424" lon="7.126141"><ele></ele><time>2013-7-31T9:48:3Z</time></trkpt>
<trkpt lat="46.787354" lon="7.125792"><ele></ele><time>2013-7-31T9:48:6Z</time></trkpt>
<trkpt lat="46.787319" lon="7.125433"><ele></ele><time>2013-7-31T9:48:9Z</time></trkpt>
<trkpt lat="46.787284" lon="7.125071"><ele></ele><time>2013-7-31T9:48:12Z</time></trkpt>
<trkpt lat="46.78729" lon="7.124763"><ele></ele><time>2013-7-31T9:48:15Z</time></trkpt>
<trkpt lat="46.787387" lon="7.124704"><ele></ele><time>2013-7-31T9:48:18Z</time></trkpt>
<trkpt lat="46.787535" lon="7.124514"><ele></ele><time>2013-7-31T9:48:21Z</time></trkpt>
<trkpt lat="46.787615" lon="7.124408"><ele></ele><time>2013-7-31T9:48:24Z</time></trkpt>
<trkpt lat="46.787687" lon="7.124312"><ele></ele><time>2013-7-31T9:48:27Z</time></trkpt>
<trkpt lat="46.787751" lon="7.12421"><ele></ele><time>2013-7-31T9:48:30Z</time></trkpt>
<trkpt lat="46.787828" lon="7.12411"><ele></ele><time>2013-7-31T9:48:33Z</time></trkpt>
<trkpt lat="46.787897" lon="7.124003"><ele></ele><time>2013-7-31T9:48:36Z</time></trkpt>
<trkpt lat="46.788009" lon="7.123834"><ele></ele><time>2013-7-31T9:48:39Z</time></trkpt>
<trkpt lat="46.788121" lon="7.123711"><ele></ele><time>2013-7-31T9:48:42Z</time></trkpt>
<trkpt lat="46.788188" lon="7.123608"><ele></ele><time>2013-7-31T9:48:45Z</time></trkpt>
<trkpt lat="46.788283" lon="7.123507"><ele></ele><time>2013-7-31T9:48:48Z</time></trkpt>
<trkpt lat="46.788379" lon="7.123411"><ele></ele><time>2013-7-31T9:48:51Z</time></trkpt>
<trkpt lat="46.788519" lon="7.123285"><ele></ele><time>2013-7-31T9:48:54Z</time></trkpt>
<trkpt lat="46.788675" lon="7.123169"><ele></ele><time>2013-7-31T9:48:57Z</time></trkpt>
<trkpt lat="46.788925" lon="7.122953"><ele></ele><time>2013-7-31T9:49:0Z</time></trkpt>
<trkpt lat="46.789082" lon="7.122751"><ele></ele><time>2013-7-31T9:49:3Z</time></trkpt>
<trkpt lat="46.789181" lon="7.122535"><ele></ele><time>2013-7-31T9:49:6Z</time></trkpt>
<trkpt lat="46.789252" lon="7.122349"><ele></ele><time>2013-7-31T9:49:9Z</time></trkpt>
<trkpt lat="46.789334" lon="7.122193"><ele></ele><time>2013-7-31T9:49:12Z</time></trkpt>
<trkpt lat="46.789467" lon="7.121854"><ele></ele><time>2013-7-31T9:49:15Z</time></trkpt>
<trkpt lat="46.789547" lon="7.121359"><ele></ele><time>2013-7-31T9:49:18Z</time></trkpt>
<trkpt lat="46.789704" lon="7.120938"><ele></ele><time>2013-7-31T9:49:21Z</time></trkpt>
<trkpt lat="46.789995" lon="7.120645"><ele></ele><time>2013-7-31T9:49:24Z</time></trkpt>
<trkpt lat="46.790235" lon="7.12047"><ele></ele><time>2013-7-31T9:49:27Z</time></trkpt>
<trkpt lat="46.790392" lon="7.120353"><ele></ele><time>2013-7-31T9:49:30Z</time></trkpt>
<trkpt lat="46.790563" lon="7.120208"><ele></ele><time>2013-7-31T9:49:33Z</time></trkpt>
<trkpt lat="46.790659" lon="7.120114"><ele></ele><time>2013-7-31T9:49:36Z</time></trkpt>
<trkpt lat="46.79065" lon="7.119955"><ele></ele><time>2013-7-31T9:49:39Z</time></trkpt>
<trkpt lat="46.790634" lon="7.119722"><ele></ele><time>2013-7-31T9:49:42Z</time></trkpt>
<trkpt lat="46.790595" lon="7.119557"><ele></ele><time>2013-7-31T9:49:45Z</time></trkpt>
<trkpt lat="46.790532" lon="7.119341"><ele></ele><time>2013-7-31T9:49:48Z</time></trkpt>
<trkpt lat="46.790492" lon="7.119201"><ele></ele><time>2013-7-31T9:49:51Z</time></trkpt>
<trkpt lat="46.790464" lon="7.119059"><ele></ele><time>2013-7-31T9:49:54Z</time></trkpt>
<trkpt lat="46.790438" lon="7.118898"><ele></ele><time>2013-7-31T9:49:57Z</time></trkpt>
<trkpt lat="46.790391" lon="7.118744"><ele></ele><time>2013-7-31T9:50:0Z</time></trkpt>
<trkpt lat="46.790406" lon="7.118913"><ele></ele><time>2013-7-31T9:50:3Z</time></trkpt>
<trkpt lat="46.790454" lon="7.119027"><ele></ele><time>2013-7-31T9:50:6Z</time></trkpt>
<trkpt lat="46.790182" lon="7.119679"><ele></ele><time>2013-7-31T9:50:9Z</time></trkpt>
<trkpt lat="46.790182" lon="7.119679"><ele></ele><time>2013-7-31T9:50:12Z</time></trkpt>
</trkseg></trk></gpx>